Time,TemperatureF,DewpointF,PressureIn,WindDirection,WindDirectionDegrees,WindSpeedMPH,WindSpeedGustMPH,Humidity,HourlyPrecipIn,Conditions,Clouds,dailyrainin,SoftwareType,DateUTC
2013-04-04 00:00:00,75.5,70.0,30.05,SE,141,11.8,11.8,81,0.00,,,0.00,TxWx,2013-04-04 04:00:00,
2013-04-04 00:01:00,75.3,69.0,30.05,SE,141,11.8,13.0,81,0.00,,,0.00,TxWx,2013-04-04 04:01:00,
2013-04-04 00:05:00,75.5,70.0,30.05,SE,141,9.9,10.5,82,0.00,,,0.00,TxWx,2013-04-04 04:05:00,
2013-04-04 00:06:00,75.4,69.0,30.05,SE,141,12.4,12.4,81,0.00,,,0.00,TxWx,2013-04-04 04:06:00,
2013-04-04 00:07:00,75.3,69.0,30.05,SE,141,12.4,14.2,81,0.00,,,0.00,TxWx,2013-04-04 04:07:00,
2013-04-04 00:11:00,75.4,69.0,30.05,SE,141,13.0,13.0,81,0.00,,,0.00,TxWx,2013-04-04 04:11:00,
2013-04-04 00:12:00,75.4,69.0,30.05,SE,141,13.0,14.9,81,0.00,,,0.00,TxWx,2013-04-04 04:12:00,
2013-04-04 00:13:00,75.4,69.0,30.05,SE,141,12.4,13.6,81,0.00,,,0.00,TxWx,2013-04-04 04:13:00,
2013-04-04 00:15:00,75.5,70.0,30.05,SE,141,12.4,14.2,81,0.00,,,0.00,TxWx,2013-04-04 04:15:00,
2013-04-04 00:17:00,75.6,70.0,30.05,SE,141,13.6,13.6,81,0.00,,,0.00,TxWx,2013-04-04 04:17:00,
2013-04-04 00:18:00,75.7,70.0,30.05,SE,141,11.8,11.8,81,0.00,,,0.00,TxWx,2013-04-04 04:18:00,
2013-04-04 00:19:00,75.4,69.0,30.05,SE,141,14.2,14.2,81,0.00,,,0.00,TxWx,2013-04-04 04:19:00,
2013-04-04 00:20:00,75.4,69.0,30.05,SE,141,13.6,13.6,81,0.00,,,0.00,TxWx,2013-04-04 04:20:00,
2013-04-04 00:23:00,75.5,69.0,30.04,SE,141,11.1,11.8,81,0.00,,,0.00,TxWx,2013-04-04 04:23:00,
2013-04-04 00:24:00,75.5,70.0,30.04,SE,141,11.8,13.0,81,0.00,,,0.00,TxWx,2013-04-04 04:24:00,
2013-04-04 00:26:00,75.4,69.0,30.04,ESE,118,13.6,14.9,81,0.00,,,0.00,TxWx,2013-04-04 04:26:00,
2013-04-04 00:29:00,75.5,70.0,30.04,SSE,163,11.8,13.0,81,0.00,,,0.00,TxWx,2013-04-04 04:29:00,
2013-04-04 00:30:00,75.6,70.0,30.04,SE,141,14.9,14.9,81,0.00,,,0.00,TxWx,2013-04-04 04:30:00,
2013-04-04 00:33:00,75.6,70.0,30.05,SE,141,11.8,11.8,81,0.00,,,0.00,TxWx,2013-04-04 04:33:00,
2013-04-04 00:35:00,75.5,70.0,30.04,SE,141,11.1,14.2,81,0.00,,,0.00,TxWx,2013-04-04 04:35:00,
2013-04-04 00:38:00,75.5,70.0,30.04,SE,141,13.6,13.6,81,0.00,,,0.00,TxWx,2013-04-04 04:38:00,
2013-04-04 00:40:00,75.6,70.0,30.05,SE,141,12.4,12.4,81,0.00,,,0.00,TxWx,2013-04-04 04:40:00,
2013-04-04 00:41:00,75.5,70.0,30.05,SE,141,13.0,13.6,81,0.00,,,0.00,TxWx,2013-04-04 04:41:00,
2013-04-04 00:42:00,75.7,70.0,30.05,SE,141,12.4,12.4,81,0.00,,,0.00,TxWx,2013-04-04 04:42:00,
2013-04-04 00:43:00,75.5,70.0,30.05,SE,141,12.4,12.4,81,0.00,,,0.00,TxWx,2013-04-04 04:43:00,
2013-04-04 00:46:00,75.5,70.0,30.05,SE,141,9.9,12.4,81,0.00,,,0.00,TxWx,2013-04-04 04:46:00,
2013-04-04 00:48:00,75.6,70.0,30.05,SSE,163,9.3,10.5,81,0.00,,,0.00,TxWx,2013-04-04 04:48:00,
2013-04-04 00:50:00,75.5,70.0,30.05,SE,141,11.8,12.4,81,0.00,,,0.00,TxWx,2013-04-04 04:50:00,
2013-04-04 00:51:00,75.7,70.0,30.05,SE,141,10.5,10.5,81,0.00,,,0.00,TxWx,2013-04-04 04:51:00,
2013-04-04 00:54:00,75.7,70.0,30.05,SE,141,11.1,11.8,81,0.00,,,0.00,TxWx,2013-04-04 04:54:00,
2013-04-04 00:55:00,75.6,70.0,30.04,SE,141,11.1,11.1,82,0.00,,,0.00,TxWx,2013-04-04 04:55:00,
2013-04-04 00:57:00,75.5,70.0,30.04,SE,141,14.2,14.2,81,0.00,,,0.00,TxWx,2013-04-04 04:57:00,
2013-04-04 00:59:00,75.6,70.0,30.04,SE,141,12.4,13.0,82,0.00,,,0.00,TxWx,2013-04-04 04:59:00,
2013-04-04 01:02:00,75.6,70.0,30.04,East,96,9.9,10.5,81,0.00,,,0.00,TxWx,2013-04-04 05:02:00,
2013-04-04 01:04:00,75.6,70.0,30.05,SE,141,10.5,11.1,81,0.00,,,0.00,TxWx,2013-04-04 05:04:00,
2013-04-04 01:07:00,75.6,70.0,30.04,SE,141,11.8,12.4,81,0.00,,,0.00,TxWx,2013-04-04 05:07:00,
2013-04-04 01:08:00,75.7,70.0,30.04,SE,141,10.5,11.1,81,0.00,,,0.00,TxWx,2013-04-04 05:08:00,
2013-04-04 01:12:00,75.5,69.0,30.04,SE,141,12.4,12.4,81,0.00,,,0.00,TxWx,2013-04-04 05:12:00,
2013-04-04 01:13:00,75.5,69.0,30.04,SE,141,11.1,14.9,81,0.00,,,0.00,TxWx,2013-04-04 05:13:00,
2013-04-04 01:14:00,75.5,70.0,30.04,SE,141,11.8,12.4,81,0.00,,,0.00,TxWx,2013-04-04 05:14:00,
2013-04-04 01:15:00,75.6,70.0,30.04,SE,141,9.9,9.9,81,0.00,,,0.00,TxWx,2013-04-04 05:15:00,
2013-04-04 01:19:00,75.5,70.0,30.04,SE,141,9.3,9.3,81,0.00,,,0.00,TxWx,2013-04-04 05:19:00,
2013-04-04 01:20:00,75.5,70.0,30.04,SE,141,9.3,11.1,81,0.00,,,0.00,TxWx,2013-04-04 05:20:00,
2013-04-04 01:22:00,75.5,70.0,30.04,ESE,118,9.9,11.8,81,0.00,,,0.00,TxWx,2013-04-04 05:22:00,
2013-04-04 01:25:00,75.5,70.0,30.04,SE,141,10.5,11.1,81,0.00,,,0.00,TxWx,2013-04-04 05:25:00,
2013-04-04 01:26:00,75.4,69.0,30.04,SE,141,11.8,11.8,81,0.00,,,0.00,TxWx,2013-04-04 05:26:00,
2013-04-04 01:27:00,75.5,70.0,30.04,SE,141,11.8,13.0,81,0.00,,,0.00,TxWx,2013-04-04 05:27:00,
2013-04-04 01:28:00,75.6,70.0,30.04,SE,141,11.1,11.8,81,0.00,,,0.00,TxWx,2013-04-04 05:28:00,
2013-04-04 01:31:00,75.6,70.0,30.04,SE,141,11.8,13.0,81,0.00,,,0.00,TxWx,2013-04-04 05:31:00,
2013-04-04 01:32:00,75.5,70.0,30.04,ESE,118,11.1,11.8,81,0.00,,,0.00,TxWx,2013-04-04 05:32:00,
2013-04-04 01:34:00,75.7,70.0,30.04,SE,141,12.4,12.4,81,0.00,,,0.00,TxWx,2013-04-04 05:34:00,
2013-04-04 01:38:00,75.5,70.0,30.03,SE,141,13.6,13.6,81,0.00,,,0.00,TxWx,2013-04-04 05:38:00,
2013-04-04 01:39:00,75.5,69.0,30.03,SE,141,11.1,12.4,81,0.00,,,0.00,TxWx,2013-04-04 05:39:00,
2013-04-04 01:40:00,75.4,69.0,30.03,SE,141,11.8,13.0,81,0.00,,,0.00,TxWx,2013-04-04 05:40:00,
2013-04-04 01:44:00,75.4,69.0,30.03,SE,141,13.0,15.5,81,0.00,,,0.00,TxWx,2013-04-04 05:44:00,
2013-04-04 01:45:00,75.5,70.0,30.03,SE,141,13.0,13.6,81,0.00,,,0.00,TxWx,2013-04-04 05:45:00,
2013-04-04 01:46:00,75.5,69.0,30.03,SE,141,13.6,13.6,81,0.00,,,0.00,TxWx,2013-04-04 05:46:00,
2013-04-04 01:47:00,75.4,69.0,30.03,SE,141,11.1,13.0,81,0.00,,,0.00,TxWx,2013-04-04 05:47:00,
2013-04-04 01:50:00,75.5,70.0,30.03,SE,141,11.8,11.8,81,0.00,,,0.00,TxWx,2013-04-04 05:50:00,
2013-04-04 01:51:00,75.5,69.0,30.02,SE,141,14.9,16.1,81,0.00,,,0.00,TxWx,2013-04-04 05:51:00,
2013-04-04 01:53:00,75.5,70.0,30.03,ESE,118,13.0,13.0,81,0.00,,,0.00,TxWx,2013-04-04 05:53:00,
2013-04-04 01:56:00,75.6,70.0,30.03,ESE,118,9.3,12.4,81,0.00,,,0.00,TxWx,2013-04-04 05:56:00,
2013-04-04 01:57:00,75.6,70.0,30.02,SE,141,9.9,10.5,81,0.00,,,0.00,TxWx,2013-04-04 05:57:00,
2013-04-04 01:59:00,75.5,70.0,30.03,SE,141,11.8,12.4,81,0.00,,,0.00,TxWx,2013-04-04 05:59:00,
2013-04-04 02:01:00,75.4,69.0,30.02,ESE,118,13.0,13.0,81,0.00,,,0.00,TxWx,2013-04-04 06:01:00,
2013-04-04 02:02:00,75.3,69.0,30.02,SE,141,14.2,14.2,81,0.00,,,0.00,TxWx,2013-04-04 06:02:00,
2013-04-04 02:05:00,75.4,69.0,30.03,SE,141,14.2,14.2,81,0.00,,,0.00,TxWx,2013-04-04 06:05:00,
2013-04-04 02:08:00,75.4,68.0,30.03,SE,141,13.0,13.0,80,0.00,,,0.00,TxWx,2013-04-04 06:08:00,
2013-04-04 02:10:00,75.5,68.0,30.02,SE,141,14.9,14.9,80,0.00,,,0.00,TxWx,2013-04-04 06:10:00,
2013-04-04 02:13:00,75.3,68.0,30.02,SE,141,14.2,17.9,80,0.00,,,0.00,TxWx,2013-04-04 06:13:00,
2013-04-04 02:14:00,75.4,68.0,30.02,ESE,118,14.9,15.5,80,0.00,,,0.00,TxWx,2013-04-04 06:14:00,
2013-04-04 02:16:00,75.3,68.0,30.02,SE,141,12.4,12.4,80,0.00,,,0.00,TxWx,2013-04-04 06:16:00,
2013-04-04 02:20:00,75.5,68.0,30.02,ESE,118,12.4,16.1,80,0.00,,,0.00,TxWx,2013-04-04 06:20:00,
2013-04-04 02:22:00,75.3,68.0,30.02,SSE,163,13.6,16.1,79,0.00,,,0.00,TxWx,2013-04-04 06:22:00,
2013-04-04 02:23:00,75.4,68.0,30.02,SE,141,16.1,17.9,79,0.00,,,0.00,TxWx,2013-04-04 06:23:00,
2013-04-04 02:25:00,75.5,68.0,30.02,SE,141,13.0,13.0,79,0.00,,,0.00,TxWx,2013-04-04 06:25:00,
2013-04-04 02:27:00,75.4,68.0,30.02,SE,141,13.6,14.2,80,0.00,,,0.00,TxWx,2013-04-04 06:27:00,
2013-04-04 02:29:00,75.3,68.0,30.02,SE,141,14.2,14.9,80,0.00,,,0.00,TxWx,2013-04-04 06:29:00,
2013-04-04 02:30:00,75.3,68.0,30.02,SE,141,15.5,16.7,80,0.00,,,0.00,TxWx,2013-04-04 06:30:00,
2013-04-04 02:34:00,75.4,68.0,30.02,ESE,118,13.0,16.7,80,0.00,,,0.00,TxWx,2013-04-04 06:34:00,
2013-04-04 02:37:00,75.3,68.0,30.01,SE,141,13.0,14.9,80,0.00,,,0.00,TxWx,2013-04-04 06:37:00,
2013-04-04 02:39:00,75.4,69.0,30.01,SE,141,13.0,14.9,81,0.00,,,0.00,TxWx,2013-04-04 06:39:00,
2013-04-04 02:41:00,75.2,69.0,30.01,ESE,118,11.8,15.5,81,0.00,,,0.00,TxWx,2013-04-04 06:41:00,
2013-04-04 02:44:00,75.1,69.0,30.01,SE,141,12.4,13.0,81,0.00,,,0.00,TxWx,2013-04-04 06:44:00,
2013-04-04 02:45:00,75.2,69.0,30.01,SE,141,14.9,14.9,81,0.00,,,0.00,TxWx,2013-04-04 06:45:00,
2013-04-04 02:48:00,75.2,69.0,30.01,SE,141,15.5,15.5,81,0.00,,,0.00,TxWx,2013-04-04 06:48:00,
2013-04-04 02:49:00,75.3,69.0,30.01,SE,141,13.6,13.6,81,0.00,,,0.00,TxWx,2013-04-04 06:49:00,
2013-04-04 02:50:00,75.1,69.0,30.01,SE,141,16.7,16.7,81,0.00,,,0.00,TxWx,2013-04-04 06:50:00,
2013-04-04 02:52:00,75.1,68.0,30.01,ESE,118,11.8,14.2,80,0.00,,,0.00,TxWx,2013-04-04 06:52:00,
2013-04-04 02:55:00,75.1,68.0,30.01,SE,141,15.5,16.7,80,0.00,,,0.00,TxWx,2013-04-04 06:55:00,
2013-04-04 02:56:00,75.3,68.0,30.00,SE,141,12.4,12.4,80,0.00,,,0.00,TxWx,2013-04-04 06:56:00,
2013-04-04 02:57:00,75.1,68.0,30.00,SE,141,14.2,16.7,80,0.00,,,0.00,TxWx,2013-04-04 06:57:00,
2013-04-04 03:01:00,75.2,68.0,30.00,SE,141,15.5,15.5,80,0.00,,,0.00,TxWx,2013-04-04 07:01:00,
2013-04-04 03:02:00,75.1,68.0,30.00,SE,141,14.2,14.9,80,0.00,,,0.00,TxWx,2013-04-04 07:02:00,
2013-04-04 03:03:00,75.3,68.0,30.00,SE,141,13.0,14.9,80,0.00,,,0.00,TxWx,2013-04-04 07:03:00,
2013-04-04 03:07:00,75.1,68.0,30.00,SE,141,14.2,14.9,80,0.00,,,0.00,TxWx,2013-04-04 07:07:00,
2013-04-04 03:08:00,75.2,68.0,30.00,SE,141,14.2,14.2,80,0.00,,,0.00,TxWx,2013-04-04 07:08:00,
2013-04-04 03:11:00,75.0,68.0,30.00,SE,141,13.6,16.1,80,0.00,,,0.00,TxWx,2013-04-04 07:11:00,
2013-04-04 03:12:00,75.1,68.0,30.00,SE,141,16.7,16.7,80,0.00,,,0.00,TxWx,2013-04-04 07:12:00,
2013-04-04 03:14:00,75.1,68.0,30.00,SE,141,12.4,14.9,80,0.00,,,0.00,TxWx,2013-04-04 07:14:00,
2013-04-04 03:16:00,75.1,68.0,29.99,ESE,118,11.8,14.9,80,0.00,,,0.00,TxWx,2013-04-04 07:16:00,
2013-04-04 03:17:00,75.1,68.0,29.99,SE,141,16.1,16.1,80,0.00,,,0.00,TxWx,2013-04-04 07:17:00,
2013-04-04 03:18:00,75.1,68.0,29.99,ESE,118,16.1,17.3,80,0.00,,,0.00,TxWx,2013-04-04 07:18:00,
2013-04-04 03:20:00,75.1,68.0,29.99,SE,141,15.5,16.1,80,0.00,,,0.00,TxWx,2013-04-04 07:20:00,
2013-04-04 03:22:00,75.0,68.0,29.99,SE,141,13.6,16.7,79,0.00,,,0.00,TxWx,2013-04-04 07:22:00,
2013-04-04 03:24:00,75.2,68.0,29.99,SE,141,12.4,13.6,80,0.00,,,0.00,TxWx,2013-04-04 07:24:00,
2013-04-04 03:26:00,75.0,68.0,29.99,SE,141,13.6,13.6,79,0.00,,,0.00,TxWx,2013-04-04 07:26:00,
2013-04-04 03:27:00,75.1,68.0,29.99,SE,141,14.2,14.9,79,0.00,,,0.00,TxWx,2013-04-04 07:27:00,
2013-04-04 03:29:00,75.2,68.0,29.99,SSE,163,11.8,13.0,80,0.00,,,0.00,TxWx,2013-04-04 07:29:00,
2013-04-04 03:32:00,74.9,68.0,29.99,SE,141,14.2,14.9,79,0.00,,,0.00,TxWx,2013-04-04 07:32:00,
2013-04-04 03:33:00,75.1,68.0,29.99,SE,141,13.0,13.0,79,0.00,,,0.00,TxWx,2013-04-04 07:33:00,
2013-04-04 03:34:00,75.2,68.0,29.99,SE,141,11.8,11.8,79,0.00,,,0.00,TxWx,2013-04-04 07:34:00,
2013-04-04 03:39:00,74.9,68.0,29.99,SE,141,14.9,18.6,79,0.00,,,0.00,TxWx,2013-04-04 07:39:00,
2013-04-04 03:40:00,75.0,68.0,29.99,SE,141,15.5,16.7,79,0.00,,,0.00,TxWx,2013-04-04 07:40:00,
2013-04-04 03:43:00,74.9,68.0,29.99,SE,141,18.6,18.6,79,0.00,,,0.00,TxWx,2013-04-04 07:43:00,
2013-04-04 03:45:00,75.0,68.0,29.99,SE,141,13.6,15.5,79,0.00,,,0.00,TxWx,2013-04-04 07:45:00,
2013-04-04 03:46:00,74.9,68.0,29.99,SE,141,16.1,16.7,79,0.00,,,0.00,TxWx,2013-04-04 07:46:00,
2013-04-04 03:47:00,75.0,68.0,29.99,SE,141,11.1,12.4,79,0.00,,,0.00,TxWx,2013-04-04 07:47:00,
2013-04-04 03:49:00,75.0,68.0,29.99,SE,141,14.2,14.2,79,0.00,,,0.00,TxWx,2013-04-04 07:49:00,
2013-04-04 03:51:00,75.1,68.0,29.99,SSE,163,14.9,17.3,79,0.00,,,0.00,TxWx,2013-04-04 07:51:00,
2013-04-04 03:52:00,74.9,68.0,29.99,SSE,163,11.8,13.0,79,0.00,,,0.00,TxWx,2013-04-04 07:52:00,
2013-04-04 03:57:00,75.0,68.0,29.98,SE,141,14.2,14.2,78,0.00,,,0.00,TxWx,2013-04-04 07:57:00,
2013-04-04 03:58:00,75.0,68.0,29.98,SE,141,14.2,14.2,78,0.00,,,0.00,TxWx,2013-04-04 07:58:00,
2013-04-04 03:59:00,75.1,68.0,29.98,SE,141,10.5,10.5,78,0.00,,,0.00,TxWx,2013-04-04 07:59:00,
2013-04-04 04:04:00,75.1,68.0,29.98,SE,141,11.1,14.9,79,0.00,,,0.00,TxWx,2013-04-04 08:04:00,
2013-04-04 04:05:00,75.0,68.0,29.98,SE,141,13.6,16.1,79,0.00,,,0.00,TxWx,2013-04-04 08:05:00,
2013-04-04 04:09:00,75.0,68.0,29.98,SE,141,17.3,17.3,79,0.00,,,0.00,TxWx,2013-04-04 08:09:00,
2013-04-04 04:10:00,75.0,68.0,29.98,SSE,163,14.9,15.5,79,0.00,,,0.00,TxWx,2013-04-04 08:10:00,
2013-04-04 04:11:00,74.9,68.0,29.98,SE,141,17.3,17.9,78,0.00,,,0.00,TxWx,2013-04-04 08:11:00,
2013-04-04 04:15:00,75.0,68.0,29.98,SE,141,13.0,13.0,78,0.00,,,0.00,TxWx,2013-04-04 08:15:00,
2013-04-04 04:16:00,75.1,68.0,29.98,SSE,163,14.9,14.9,78,0.00,,,0.00,TxWx,2013-04-04 08:16:00,
2013-04-04 04:18:00,74.9,68.0,29.98,SE,141,16.7,16.7,78,0.00,,,0.00,TxWx,2013-04-04 08:18:00,
2013-04-04 04:20:00,75.1,68.0,29.98,SSE,163,14.9,14.9,79,0.00,,,0.00,TxWx,2013-04-04 08:20:00,
2013-04-04 04:21:00,75.1,68.0,29.98,SE,141,16.7,16.7,79,0.00,,,0.00,TxWx,2013-04-04 08:21:00,
2013-04-04 04:22:00,75.0,68.0,29.98,SSE,163,15.5,15.5,79,0.00,,,0.00,TxWx,2013-04-04 08:22:00,
2013-04-04 04:24:00,74.9,68.0,29.98,SSE,163,13.6,15.5,78,0.00,,,0.00,TxWx,2013-04-04 08:24:00,
2013-04-04 04:26:00,75.0,68.0,29.98,SSE,163,16.7,17.3,78,0.00,,,0.00,TxWx,2013-04-04 08:26:00,
2013-04-04 04:27:00,75.0,68.0,29.98,SSE,163,13.0,16.1,78,0.00,,,0.00,TxWx,2013-04-04 08:27:00,
2013-04-04 04:29:00,75.0,68.0,29.99,SSE,163,14.2,14.9,78,0.00,,,0.00,TxWx,2013-04-04 08:29:00,
2013-04-04 04:31:00,75.1,68.0,29.98,SSE,163,9.3,11.1,78,0.00,,,0.00,TxWx,2013-04-04 08:31:00,
2013-04-04 04:35:00,75.0,68.0,29.98,ESE,118,11.1,11.1,78,0.00,,,0.00,TxWx,2013-04-04 08:35:00,
2013-04-04 04:36:00,75.1,68.0,29.98,SE,141,14.9,17.9,79,0.00,,,0.00,TxWx,2013-04-04 08:36:00,
2013-04-04 04:40:00,75.1,67.0,29.99,SSE,163,13.6,13.6,77,0.00,,,0.00,TxWx,2013-04-04 08:40:00,
2013-04-04 04:41:00,74.9,67.0,29.98,ESE,118,13.6,15.5,77,0.00,,,0.00,TxWx,2013-04-04 08:41:00,
2013-04-04 04:43:00,75.1,67.0,29.99,SSE,163,11.1,11.1,77,0.00,,,0.00,TxWx,2013-04-04 08:43:00,
2013-04-04 04:47:00,75.0,67.0,29.99,SE,141,13.0,14.2,77,0.00,,,0.00,TxWx,2013-04-04 08:47:00,
2013-04-04 04:48:00,74.9,67.0,29.99,SE,141,10.5,10.5,77,0.00,,,0.00,TxWx,2013-04-04 08:48:00,
2013-04-04 04:49:00,75.0,67.0,29.99,SE,141,16.1,16.7,77,0.00,,,0.00,TxWx,2013-04-04 08:49:00,
2013-04-04 04:52:00,75.1,67.0,29.99,SE,141,11.8,14.9,77,0.00,,,0.00,TxWx,2013-04-04 08:52:00,
2013-04-04 04:54:00,75.0,67.0,29.99,SE,141,18.6,18.6,77,0.00,,,0.00,TxWx,2013-04-04 08:54:00,
2013-04-04 04:55:00,75.0,67.0,29.99,SSE,163,13.0,16.1,77,0.00,,,0.00,TxWx,2013-04-04 08:55:00,
2013-04-04 04:57:00,75.0,67.0,29.99,SSE,163,16.7,16.7,78,0.00,,,0.00,TxWx,2013-04-04 08:57:00,
2013-04-04 04:58:00,75.2,68.0,29.99,SSE,163,14.9,14.9,78,0.00,,,0.00,TxWx,2013-04-04 08:58:00,
2013-04-04 05:02:00,75.0,68.0,29.99,SSE,163,11.1,13.0,79,0.00,,,0.00,TxWx,2013-04-04 09:02:00,
2013-04-04 05:04:00,74.9,68.0,29.99,SSE,163,13.6,13.6,79,0.00,,,0.00,TxWx,2013-04-04 09:04:00,
2013-04-04 05:08:00,74.9,68.0,29.99,SSE,163,12.4,12.4,78,0.00,,,0.00,TxWx,2013-04-04 09:08:00,
2013-04-04 05:09:00,74.9,67.0,29.99,South,186,16.1,16.1,78,0.00,,,0.00,TxWx,2013-04-04 09:09:00,
2013-04-04 05:10:00,74.9,67.0,29.99,SE,141,9.9,13.6,78,0.00,,,0.00,TxWx,2013-04-04 09:10:00,
2013-04-04 05:14:00,74.8,67.0,29.99,South,186,16.1,16.1,77,0.00,,,0.00,TxWx,2013-04-04 09:14:00,
2013-04-04 05:15:00,74.9,67.0,29.99,SSE,163,13.0,13.0,77,0.00,,,0.00,TxWx,2013-04-04 09:15:00,
2013-04-04 05:16:00,75.1,67.0,29.99,SSE,163,11.1,11.1,77,0.00,,,0.00,TxWx,2013-04-04 09:16:00,
2013-04-04 05:19:00,74.9,67.0,29.99,SE,141,11.1,11.1,76,0.00,,,0.00,TxWx,2013-04-04 09:19:00,
2013-04-04 05:21:00,75.0,67.0,29.99,SE,141,14.9,14.9,76,0.00,,,0.00,TxWx,2013-04-04 09:21:00,
2013-04-04 05:23:00,75.0,67.0,29.99,SSE,163,14.9,14.9,77,0.00,,,0.00,TxWx,2013-04-04 09:23:00,
2013-04-04 05:27:00,75.0,67.0,29.99,SSE,163,13.0,17.3,77,0.00,,,0.00,TxWx,2013-04-04 09:27:00,
2013-04-04 05:28:00,75.2,67.0,29.99,SE,141,9.9,11.8,78,0.00,,,0.00,TxWx,2013-04-04 09:28:00,
2013-04-04 05:30:00,75.1,68.0,29.99,SE,141,12.4,13.6,78,0.00,,,0.00,TxWx,2013-04-04 09:30:00,
2013-04-04 05:32:00,74.8,68.0,29.99,SE,141,11.8,14.2,78,0.00,,,0.00,TxWx,2013-04-04 09:32:00,
2013-04-04 05:34:00,75.0,68.0,29.99,SE,141,11.1,17.9,79,0.00,,,0.00,TxWx,2013-04-04 09:34:00,
2013-04-04 05:36:00,75.0,68.0,29.99,SE,141,13.6,15.5,79,0.00,,,0.00,TxWx,2013-04-04 09:36:00,
2013-04-04 05:37:00,74.9,68.0,29.99,SE,141,14.2,14.2,79,0.00,,,0.00,TxWx,2013-04-04 09:37:00,
2013-04-04 05:39:00,75.0,68.0,29.99,SE,141,16.1,16.1,80,0.00,,,0.00,TxWx,2013-04-04 09:39:00,
2013-04-04 05:42:00,74.8,68.0,29.99,SSE,163,18.6,18.6,79,0.00,,,0.00,TxWx,2013-04-04 09:42:00,
2013-04-04 05:44:00,74.9,68.0,29.99,SE,141,10.5,14.2,78,0.00,,,0.00,TxWx,2013-04-04 09:44:00,
2013-04-04 05:45:00,75.0,68.0,29.99,SE,141,11.8,13.0,79,0.00,,,0.00,TxWx,2013-04-04 09:45:00,
2013-04-04 05:47:00,74.8,68.0,29.99,SE,141,13.6,16.7,78,0.00,,,0.00,TxWx,2013-04-04 09:47:00,
2013-04-04 05:50:00,75.0,67.0,29.99,SSE,163,14.9,16.7,78,0.00,,,0.00,TxWx,2013-04-04 09:50:00,
2013-04-04 05:52:00,74.8,67.0,29.99,SE,141,12.4,14.9,78,0.00,,,0.00,TxWx,2013-04-04 09:52:00,
2013-04-04 05:53:00,75.0,68.0,29.99,SSE,163,14.9,14.9,78,0.00,,,0.00,TxWx,2013-04-04 09:53:00,
2013-04-04 05:55:00,74.8,68.0,29.99,SSE,163,15.5,15.5,78,0.00,,,0.00,TxWx,2013-04-04 09:55:00,
2013-04-04 05:59:00,74.9,67.0,29.99,SE,141,13.6,16.1,78,0.00,,,0.00,TxWx,2013-04-04 09:59:00,
2013-04-04 06:02:00,75.0,68.0,29.99,SSE,163,13.0,13.6,78,0.00,,,0.00,TxWx,2013-04-04 10:02:00,
2013-04-04 06:04:00,74.9,68.0,29.99,SE,141,14.2,14.9,79,0.00,,,0.00,TxWx,2013-04-04 10:04:00,
2013-04-04 06:05:00,74.9,68.0,29.99,SE,141,9.3,11.1,78,0.00,,,0.00,TxWx,2013-04-04 10:05:00,
2013-04-04 06:09:00,75.1,68.0,29.99,SSE,163,9.3,11.8,79,0.00,,,0.00,TxWx,2013-04-04 10:09:00,
2013-04-04 06:10:00,74.9,68.0,29.99,SE,141,13.0,13.0,79,0.00,,,0.00,TxWx,2013-04-04 10:10:00,
2013-04-04 06:14:00,75.0,68.0,29.99,SE,141,12.4,13.6,79,0.00,,,0.00,TxWx,2013-04-04 10:14:00,
2013-04-04 06:16:00,75.1,68.0,29.99,ESE,118,8.0,11.1,79,0.00,,,0.00,TxWx,2013-04-04 10:16:00,
2013-04-04 06:20:00,74.8,68.0,30.00,South,186,12.4,13.6,79,0.00,,,0.00,TxWx,2013-04-04 10:20:00,
2013-04-04 06:22:00,74.8,68.0,30.00,SE,141,12.4,16.1,79,0.00,,,0.00,TxWx,2013-04-04 10:22:00,
2013-04-04 06:23:00,75.0,68.0,30.00,SE,141,14.2,14.2,80,0.00,,,0.00,TxWx,2013-04-04 10:23:00,
2013-04-04 06:25:00,75.0,68.0,30.00,SSE,163,13.0,13.6,80,0.00,,,0.00,TxWx,2013-04-04 10:25:00,
2013-04-04 06:27:00,74.8,68.0,30.00,South,186,14.9,16.7,80,0.00,,,0.00,TxWx,2013-04-04 10:27:00,
2013-04-04 06:28:00,74.9,68.0,30.00,SE,141,14.9,16.7,80,0.00,,,0.00,TxWx,2013-04-04 10:28:00,
2013-04-04 06:30:00,75.0,68.0,30.00,SSE,163,9.9,11.8,80,0.00,,,0.00,TxWx,2013-04-04 10:30:00,
2013-04-04 06:32:00,75.0,68.0,30.00,SE,141,13.6,13.6,80,0.00,,,0.00,TxWx,2013-04-04 10:32:00,
2013-04-04 06:33:00,75.0,68.0,30.00,SE,141,9.9,10.5,80,0.00,,,0.00,TxWx,2013-04-04 10:33:00,
2013-04-04 06:36:00,74.9,68.0,30.00,SE,141,9.9,13.6,80,0.00,,,0.00,TxWx,2013-04-04 10:36:00,
2013-04-04 06:37:00,75.0,68.0,30.00,SE,141,11.8,14.2,80,0.00,,,0.00,TxWx,2013-04-04 10:37:00,
2013-04-04 06:38:00,74.9,68.0,30.00,SSE,163,12.4,14.2,80,0.00,,,0.00,TxWx,2013-04-04 10:38:00,
2013-04-04 06:40:00,75.0,68.0,30.00,SE,141,11.8,12.4,80,0.00,,,0.00,TxWx,2013-04-04 10:40:00,
2013-04-04 06:41:00,75.0,68.0,30.00,SSE,163,13.0,13.0,80,0.00,,,0.00,TxWx,2013-04-04 10:41:00,
2013-04-04 06:44:00,75.0,69.0,30.00,SSE,163,11.8,13.0,81,0.00,,,0.00,TxWx,2013-04-04 10:44:00,
2013-04-04 06:46:00,74.8,69.0,30.00,SE,141,8.7,14.2,81,0.00,,,0.00,TxWx,2013-04-04 10:46:00,
2013-04-04 06:47:00,74.8,69.0,30.00,SE,141,15.5,15.5,81,0.00,,,0.00,TxWx,2013-04-04 10:47:00,
2013-04-04 06:50:00,75.0,69.0,30.00,ESE,118,9.3,9.3,81,0.00,,,0.00,TxWx,2013-04-04 10:50:00,
2013-04-04 06:51:00,74.9,68.0,30.01,ESE,118,11.8,12.4,80,0.00,,,0.00,TxWx,2013-04-04 10:51:00,
2013-04-04 06:52:00,74.9,68.0,30.01,SE,141,16.1,16.1,80,0.00,,,0.00,TxWx,2013-04-04 10:52:00,
2013-04-04 06:54:00,75.0,68.0,30.01,SE,141,5.0,7.4,80,0.00,,,0.00,TxWx,2013-04-04 10:54:00,
2013-04-04 06:56:00,75.0,68.0,30.01,SSE,163,11.1,14.9,80,0.00,,,0.00,TxWx,2013-04-04 10:56:00,
2013-04-04 06:58:00,74.9,68.0,30.01,SE,141,12.4,12.4,80,0.00,,,0.00,TxWx,2013-04-04 10:58:00,
2013-04-04 06:59:00,74.9,68.0,30.01,SSE,163,6.2,6.2,80,0.00,,,0.00,TxWx,2013-04-04 10:59:00,
2013-04-04 07:01:00,75.0,68.0,30.02,SSE,163,8.7,8.7,80,0.00,,,0.00,TxWx,2013-04-04 11:01:00,
2013-04-04 07:03:00,75.0,68.0,30.02,SSE,163,8.7,8.7,80,0.00,,,0.00,TxWx,2013-04-04 11:03:00,
2013-04-04 07:04:00,75.0,68.0,30.02,South,186,6.8,8.7,80,0.00,,,0.00,TxWx,2013-04-04 11:04:00,
2013-04-04 07:06:00,75.0,68.0,30.02,South,186,7.4,8.7,80,0.00,,,0.00,TxWx,2013-04-04 11:06:00,
2013-04-04 07:09:00,74.9,68.0,30.02,SE,141,9.9,11.1,80,0.00,,,0.00,TxWx,2013-04-04 11:09:00,
2013-04-04 07:10:00,74.9,68.0,30.02,SSE,163,11.8,11.8,80,0.00,,,0.00,TxWx,2013-04-04 11:10:00,
2013-04-04 07:11:00,74.9,68.0,30.02,SSW,208,6.8,7.4,80,0.00,,,0.00,TxWx,2013-04-04 11:11:00,
2013-04-04 07:12:00,74.8,68.0,30.02,SSE,163,4.3,5.6,80,0.00,,,0.00,TxWx,2013-04-04 11:12:00,
2013-04-04 07:14:00,74.8,68.0,30.02,South,186,8.0,8.7,80,0.00,,,0.00,TxWx,2013-04-04 11:14:00,
2013-04-04 07:15:00,74.9,68.0,30.02,SE,141,6.8,6.8,80,0.00,,,0.00,TxWx,2013-04-04 11:15:00,
2013-04-04 07:17:00,74.9,68.0,30.02,SE,141,5.6,7.4,80,0.00,,,0.00,TxWx,2013-04-04 11:17:00,
2013-04-04 07:19:00,75.0,68.0,30.02,SSW,208,6.2,6.8,80,0.00,,,0.00,TxWx,2013-04-04 11:19:00,
2013-04-04 07:22:00,75.0,68.0,30.02,SSE,163,11.1,11.1,80,0.00,,,0.00,TxWx,2013-04-04 11:22:00,
2013-04-04 07:24:00,75.0,68.0,30.02,South,186,4.3,5.0,80,0.00,,,0.00,TxWx,2013-04-04 11:24:00,
2013-04-04 07:25:00,75.0,68.0,30.02,South,186,6.8,6.8,80,0.00,,,0.00,TxWx,2013-04-04 11:25:00,
2013-04-04 07:27:00,75.0,68.0,30.02,SE,141,4.3,5.0,80,0.00,,,0.00,TxWx,2013-04-04 11:27:00,
2013-04-04 07:28:00,75.1,68.0,30.02,SE,141,5.6,6.2,80,0.00,,,0.00,TxWx,2013-04-04 11:28:00,
2013-04-04 07:29:00,75.1,68.0,30.02,South,186,3.7,3.7,80,0.00,,,0.00,TxWx,2013-04-04 11:29:00,
2013-04-04 07:30:00,75.1,68.0,30.02,SSW,208,6.2,9.3,80,0.00,,,0.00,TxWx,2013-04-04 11:30:00,
2013-04-04 07:33:00,74.9,68.0,30.02,South,186,8.0,8.7,80,0.00,,,0.00,TxWx,2013-04-04 11:33:00,
2013-04-04 07:38:00,75.0,68.0,30.02,SSE,163,9.9,9.9,79,0.00,,,0.00,TxWx,2013-04-04 11:38:00,
2013-04-04 07:40:00,75.2,68.0,30.02,SSE,163,6.2,6.2,79,0.00,,,0.00,TxWx,2013-04-04 11:40:00,
2013-04-04 07:43:00,75.3,68.0,30.02,SE,141,5.0,5.0,79,0.00,,,0.00,TxWx,2013-04-04 11:43:00,
2013-04-04 07:45:00,75.4,68.0,30.02,SE,141,8.7,8.7,79,0.00,,,0.00,TxWx,2013-04-04 11:45:00,
2013-04-04 07:47:00,75.3,68.0,30.02,South,186,6.8,8.0,79,0.00,,,0.00,TxWx,2013-04-04 11:47:00,
2013-04-04 07:48:00,75.2,68.0,30.02,SE,141,6.8,6.8,79,0.00,,,0.00,TxWx,2013-04-04 11:48:00,
2013-04-04 07:51:00,75.2,68.0,30.02,WSW,253,8.0,8.0,79,0.00,,,0.00,TxWx,2013-04-04 11:51:00,
2013-04-04 07:52:00,75.2,68.0,30.02,SSE,163,7.4,8.7,79,0.00,,,0.00,TxWx,2013-04-04 11:52:00,
2013-04-04 07:54:00,75.2,68.0,30.02,SSE,163,5.0,5.6,79,0.00,,,0.00,TxWx,2013-04-04 11:54:00,
2013-04-04 07:56:00,75.2,68.0,30.02,SSE,163,8.0,8.7,79,0.00,,,0.00,TxWx,2013-04-04 11:56:00,
2013-04-04 07:58:00,75.3,68.0,30.02,SSE,163,7.4,7.4,79,0.00,,,0.00,TxWx,2013-04-04 11:58:00,
2013-04-04 07:59:00,75.2,68.0,30.02,South,186,17.3,17.3,79,0.00,,,0.00,TxWx,2013-04-04 11:59:00,
2013-04-04 08:02:00,75.2,68.0,30.02,SE,141,10.5,11.8,79,0.00,,,0.00,TxWx,2013-04-04 12:02:00,
2013-04-04 08:03:00,75.2,68.0,30.02,SE,141,13.0,13.0,79,0.00,,,0.00,TxWx,2013-04-04 12:03:00,
2013-04-04 08:04:00,75.2,68.0,30.02,SE,141,9.3,9.3,79,0.00,,,0.00,TxWx,2013-04-04 12:04:00,
2013-04-04 08:05:00,75.1,68.0,30.02,SSW,208,9.3,14.2,79,0.00,,,0.00,TxWx,2013-04-04 12:05:00,
2013-04-04 08:08:00,75.1,68.0,30.02,SSE,163,13.0,13.0,78,0.00,,,0.00,TxWx,2013-04-04 12:08:00,
2013-04-04 08:09:00,75.2,68.0,30.01,SSE,163,8.0,8.0,78,0.00,,,0.00,TxWx,2013-04-04 12:09:00,
2013-04-04 08:10:00,75.2,68.0,30.01,SSE,163,9.9,11.8,78,0.00,,,0.00,TxWx,2013-04-04 12:10:00,
2013-04-04 08:13:00,75.3,68.0,30.01,SE,141,11.1,11.8,79,0.00,,,0.00,TxWx,2013-04-04 12:13:00,
2013-04-04 08:14:00,75.3,68.0,30.01,SE,141,8.0,10.5,79,0.00,,,0.00,TxWx,2013-04-04 12:14:00,
2013-04-04 08:16:00,75.3,68.0,30.01,ESE,118,7.4,7.4,79,0.00,,,0.00,TxWx,2013-04-04 12:16:00,
2013-04-04 08:17:00,75.3,68.0,30.01,SSE,163,9.9,11.1,79,0.00,,,0.00,TxWx,2013-04-04 12:17:00,
2013-04-04 08:20:00,75.3,68.0,30.01,SE,141,9.9,11.1,79,0.00,,,0.00,TxWx,2013-04-04 12:20:00,
2013-04-04 08:21:00,75.3,68.0,30.01,SSE,163,13.6,13.6,79,0.00,,,0.00,TxWx,2013-04-04 12:21:00,
2013-04-04 08:22:00,75.2,68.0,30.01,SE,141,14.9,14.9,79,0.00,,,0.00,TxWx,2013-04-04 12:22:00,
2013-04-04 08:24:00,75.2,68.0,30.01,SSE,163,11.1,11.1,79,0.00,,,0.00,TxWx,2013-04-04 12:24:00,
2013-04-04 08:26:00,75.1,68.0,30.01,SE,141,12.4,14.9,80,0.00,,,0.00,TxWx,2013-04-04 12:26:00,
2013-04-04 08:27:00,75.2,68.0,30.01,South,186,6.8,7.4,80,0.00,,,0.00,TxWx,2013-04-04 12:27:00,
2013-04-04 08:28:00,75.2,68.0,30.01,SE,141,8.0,9.3,80,0.00,,,0.00,TxWx,2013-04-04 12:28:00,
2013-04-04 08:30:00,75.2,68.0,30.01,South,186,9.9,11.1,80,0.00,,,0.00,TxWx,2013-04-04 12:30:00,
2013-04-04 08:32:00,75.1,68.0,30.01,SE,141,13.0,15.5,80,0.00,,,0.00,TxWx,2013-04-04 12:32:00,
2013-04-04 08:33:00,75.1,68.0,30.00,SSE,163,13.0,14.9,80,0.00,,,0.00,TxWx,2013-04-04 12:33:00,
2013-04-04 08:35:00,75.2,68.0,30.01,SE,141,13.0,14.2,79,0.00,,,0.00,TxWx,2013-04-04 12:35:00,
2013-04-04 08:37:00,75.2,68.0,30.01,SE,141,14.2,15.5,79,0.00,,,0.00,TxWx,2013-04-04 12:37:00,
2013-04-04 08:39:00,75.2,68.0,30.00,ESE,118,15.5,15.5,79,0.00,,,0.00,TxWx,2013-04-04 12:39:00,
2013-04-04 08:40:00,75.4,68.0,30.00,East,96,12.4,12.4,79,0.00,,,0.00,TxWx,2013-04-04 12:40:00,
2013-04-04 08:44:00,75.2,68.0,30.00,SE,141,16.1,17.3,79,0.00,,,0.00,TxWx,2013-04-04 12:44:00,
2013-04-04 08:46:00,75.3,68.0,30.00,SSE,163,13.6,15.5,79,0.00,,,0.00,TxWx,2013-04-04 12:46:00,
2013-04-04 08:50:00,75.3,68.0,30.00,South,186,10.5,12.4,79,0.00,,,0.00,TxWx,2013-04-04 12:50:00,
2013-04-04 08:51:00,75.4,68.0,30.01,SE,141,8.0,11.1,79,0.00,,,0.00,TxWx,2013-04-04 12:51:00,
2013-04-04 08:53:00,75.3,68.0,30.00,SSE,163,14.9,14.9,79,0.00,,,0.00,TxWx,2013-04-04 12:53:00,
2013-04-04 08:56:00,75.4,68.0,30.00,SSE,163,13.0,15.5,80,0.00,,,0.00,TxWx,2013-04-04 12:56:00,
2013-04-04 08:57:00,75.3,68.0,30.00,SSE,163,12.4,13.0,80,0.00,,,0.00,TxWx,2013-04-04 12:57:00,
2013-04-04 08:59:00,75.3,68.0,30.00,SE,141,11.8,17.3,79,0.00,,,0.00,TxWx,2013-04-04 12:59:00,
2013-04-04 09:02:00,75.3,68.0,30.00,SE,141,13.0,16.7,79,0.00,,,0.00,TxWx,2013-04-04 13:02:00,
2013-04-04 09:05:00,75.3,68.0,30.00,SSE,163,13.0,14.9,80,0.00,,,0.00,TxWx,2013-04-04 13:05:00,
2013-04-04 09:07:00,75.3,68.0,30.00,SE,141,8.7,8.7,80,0.00,,,0.00,TxWx,2013-04-04 13:07:00,
2013-04-04 09:09:00,75.2,68.0,30.00,SE,141,11.1,11.1,80,0.00,,,0.00,TxWx,2013-04-04 13:09:00,
2013-04-04 09:12:00,75.4,68.0,30.00,SE,141,16.1,16.7,80,0.00,,,0.00,TxWx,2013-04-04 13:12:00,
2013-04-04 09:15:00,75.2,68.0,30.00,SSE,163,15.5,15.5,80,0.00,,,0.00,TxWx,2013-04-04 13:15:00,
2013-04-04 09:17:00,75.4,68.0,30.00,SE,141,13.6,15.5,80,0.00,,,0.00,TxWx,2013-04-04 13:17:00,
2013-04-04 09:18:00,75.3,68.0,30.00,SSE,163,11.8,13.0,80,0.00,,,0.00,TxWx,2013-04-04 13:18:00,
2013-04-04 09:22:00,75.3,69.0,30.00,SE,141,13.0,17.9,81,0.00,,,0.00,TxWx,2013-04-04 13:22:00,
2013-04-04 09:23:00,75.1,68.0,30.00,SSE,163,17.3,17.3,80,0.00,,,0.00,TxWx,2013-04-04 13:23:00,
2013-04-04 09:24:00,75.2,68.0,30.00,SE,141,14.2,14.2,80,0.00,,,0.00,TxWx,2013-04-04 13:24:00,
2013-04-04 09:28:00,75.3,68.0,30.00,SE,141,10.5,12.4,80,0.00,,,0.00,TxWx,2013-04-04 13:28:00,
2013-04-04 09:29:00,75.3,68.0,29.99,SSE,163,13.6,13.6,80,0.00,,,0.00,TxWx,2013-04-04 13:29:00,
2013-04-04 09:30:00,75.3,68.0,29.99,SE,141,13.0,13.0,80,0.00,,,0.00,TxWx,2013-04-04 13:30:00,
2013-04-04 09:34:00,75.2,68.0,30.00,SE,141,11.8,13.0,80,0.00,,,0.00,TxWx,2013-04-04 13:34:00,
2013-04-04 09:35:00,75.2,68.0,30.00,SSE,163,11.1,14.2,80,0.00,,,0.00,TxWx,2013-04-04 13:35:00,
2013-04-04 09:40:00,75.3,68.0,30.01,SSE,163,13.6,13.6,80,0.00,,,0.00,TxWx,2013-04-04 13:40:00,
2013-04-04 09:43:00,75.3,69.0,30.00,SSE,163,11.8,11.8,81,0.00,,,0.00,TxWx,2013-04-04 13:43:00,
2013-04-04 09:45:00,75.3,69.0,30.00,SE,141,12.4,13.6,81,0.00,,,0.00,TxWx,2013-04-04 13:45:00,
2013-04-04 09:46:00,75.2,68.0,30.01,SE,141,14.2,14.2,80,0.00,,,0.00,TxWx,2013-04-04 13:46:00,
2013-04-04 09:48:00,75.4,69.0,30.00,SE,141,8.0,8.0,81,0.00,,,0.00,TxWx,2013-04-04 13:48:00,
2013-04-04 09:49:00,75.3,69.0,30.00,SE,141,11.8,11.8,81,0.00,,,0.00,TxWx,2013-04-04 13:49:00,
2013-04-04 09:51:00,75.4,69.0,30.00,SSE,163,13.0,13.0,81,0.00,,,0.00,TxWx,2013-04-04 13:51:00,
2013-04-04 09:53:00,75.4,69.0,30.00,SE,141,13.6,15.5,81,0.00,,,0.00,TxWx,2013-04-04 13:53:00,
2013-04-04 09:54:00,75.4,69.0,30.00,SE,141,8.7,10.5,81,0.00,,,0.00,TxWx,2013-04-04 13:54:00,
2013-04-04 09:59:00,75.4,69.0,30.00,SSE,163,11.8,12.4,81,0.00,,,0.00,TxWx,2013-04-04 13:59:00,
2013-04-04 10:00:00,75.3,69.0,30.01,SE,141,13.6,14.2,81,0.00,,,0.00,TxWx,2013-04-04 14:00:00,
2013-04-04 10:01:00,75.4,69.0,30.00,SSE,163,11.1,12.4,81,0.00,,,0.00,TxWx,2013-04-04 14:01:00,
2013-04-04 10:02:00,75.4,69.0,30.00,SSE,163,16.1,16.1,81,0.00,,,0.00,TxWx,2013-04-04 14:02:00,
2013-04-04 10:04:00,75.5,69.0,30.00,SE,141,10.5,13.6,81,0.00,,,0.00,TxWx,2013-04-04 14:04:00,
2013-04-04 10:07:00,75.4,69.0,30.00,SE,141,11.1,13.0,81,0.00,,,0.00,TxWx,2013-04-04 14:07:00,
2013-04-04 10:09:00,75.5,70.0,30.00,SSE,163,14.9,14.9,81,0.00,,,0.00,TxWx,2013-04-04 14:09:00,
2013-04-04 10:10:00,75.5,70.0,30.00,SSE,163,14.2,16.1,81,0.00,,,0.00,TxWx,2013-04-04 14:10:00,
2013-04-04 10:12:00,75.5,68.0,30.00,SSE,163,14.2,14.2,80,0.00,,,0.00,TxWx,2013-04-04 14:12:00,
2013-04-04 10:14:00,75.5,69.0,29.99,SSE,163,11.1,11.1,80,0.00,,,0.00,TxWx,2013-04-04 14:14:00,
2013-04-04 10:15:00,75.5,69.0,30.00,SSE,163,14.2,14.2,80,0.00,,,0.00,TxWx,2013-04-04 14:15:00,
2013-04-04 10:17:00,75.5,68.0,30.00,SE,141,17.3,17.3,80,0.00,,,0.00,TxWx,2013-04-04 14:17:00,
2013-04-04 10:19:00,75.6,70.0,30.00,SSE,163,10.5,10.5,81,0.00,,,0.00,TxWx,2013-04-04 14:19:00,
2013-04-04 10:21:00,75.5,70.0,30.00,ESE,118,11.1,12.4,81,0.00,,,0.00,TxWx,2013-04-04 14:21:00,
2013-04-04 10:22:00,75.5,69.0,30.00,SSE,163,10.5,14.2,81,0.00,,,0.00,TxWx,2013-04-04 14:22:00,
2013-04-04 10:25:00,75.4,68.0,30.00,SE,141,14.2,14.2,80,0.00,,,0.00,TxWx,2013-04-04 14:25:00,
2013-04-04 10:27:00,75.6,69.0,30.00,SE,141,12.4,15.5,80,0.00,,,0.00,TxWx,2013-04-04 14:27:00,
2013-04-04 10:29:00,75.5,69.0,30.00,SE,141,13.6,13.6,80,0.00,,,0.00,TxWx,2013-04-04 14:29:00,
2013-04-04 10:30:00,75.5,68.0,30.00,SE,141,16.1,16.1,80,0.00,,,0.00,TxWx,2013-04-04 14:30:00,
2013-04-04 10:32:00,75.6,69.0,30.00,SSE,163,12.4,13.0,80,0.00,,,0.00,TxWx,2013-04-04 14:32:00,
2013-04-04 10:33:00,75.6,69.0,30.00,SSE,163,15.5,17.3,80,0.00,,,0.00,TxWx,2013-04-04 14:33:00,
2013-04-04 10:34:00,75.6,69.0,30.00,SSE,163,13.6,13.6,80,0.00,,,0.00,TxWx,2013-04-04 14:34:00,
2013-04-04 10:37:00,75.7,69.0,30.00,ESE,118,14.9,14.9,80,0.00,,,0.00,TxWx,2013-04-04 14:37:00,
2013-04-04 10:39:00,75.6,69.0,30.00,SE,141,14.9,14.9,80,0.00,,,0.00,TxWx,2013-04-04 14:39:00,
2013-04-04 10:41:00,75.8,69.0,30.00,SSE,163,14.2,15.5,80,0.00,,,0.00,TxWx,2013-04-04 14:41:00,
2013-04-04 10:43:00,75.8,69.0,30.00,SE,141,9.3,11.8,80,0.00,,,0.00,TxWx,2013-04-04 14:43:00,
2013-04-04 10:44:00,75.6,69.0,30.00,SSE,163,16.7,16.7,80,0.00,,,0.00,TxWx,2013-04-04 14:44:00,
2013-04-04 10:45:00,75.5,69.0,30.00,ESE,118,11.8,18.6,80,0.00,,,0.00,TxWx,2013-04-04 14:45:00,
2013-04-04 10:48:00,75.7,69.0,30.00,SSE,163,13.0,16.7,80,0.00,,,0.00,TxWx,2013-04-04 14:48:00,
2013-04-04 10:50:00,75.9,69.0,30.00,SSE,163,16.1,16.1,80,0.00,,,0.00,TxWx,2013-04-04 14:50:00,
2013-04-04 10:53:00,75.9,69.0,30.00,South,186,15.5,17.9,80,0.00,,,0.00,TxWx,2013-04-04 14:53:00,
2013-04-04 10:55:00,76.2,69.0,30.00,SSE,163,15.5,15.5,80,0.00,,,0.00,TxWx,2013-04-04 14:55:00,
2013-04-04 10:57:00,76.3,69.0,30.00,SSE,163,12.4,12.4,80,0.00,,,0.00,TxWx,2013-04-04 14:57:00,
2013-04-04 10:59:00,76.4,69.0,30.00,SE,141,19.2,19.2,80,0.00,,,0.00,TxWx,2013-04-04 14:59:00,
2013-04-04 11:04:00,76.4,69.0,30.00,SE,141,8.7,14.2,79,0.00,,,0.00,TxWx,2013-04-04 15:04:00,
2013-04-04 11:05:00,76.4,69.0,30.00,SE,141,8.7,10.5,79,0.00,,,0.00,TxWx,2013-04-04 15:05:00,
2013-04-04 11:09:00,76.4,69.0,30.00,SE,141,14.2,14.2,80,0.00,,,0.00,TxWx,2013-04-04 15:09:00,
2013-04-04 11:10:00,76.5,70.0,30.01,SE,141,11.1,12.4,80,0.00,,,0.00,TxWx,2013-04-04 15:10:00,
2013-04-04 11:12:00,76.8,70.0,30.01,SSE,163,15.5,15.5,79,0.00,,,0.00,TxWx,2013-04-04 15:12:00,
2013-04-04 11:14:00,76.6,70.0,30.01,SE,141,9.9,14.2,79,0.00,,,0.00,TxWx,2013-04-04 15:14:00,
2013-04-04 11:15:00,76.5,70.0,30.01,SE,141,12.4,15.5,79,0.00,,,0.00,TxWx,2013-04-04 15:15:00,
2013-04-04 11:16:00,76.8,70.0,30.01,SSE,163,11.8,14.2,79,0.00,,,0.00,TxWx,2013-04-04 15:16:00,
2013-04-04 11:18:00,76.8,70.0,30.01,SSE,163,10.5,11.1,79,0.00,,,0.00,TxWx,2013-04-04 15:18:00,
2013-04-04 11:20:00,76.7,70.0,30.01,SSE,163,11.1,16.7,79,0.00,,,0.00,TxWx,2013-04-04 15:20:00,
2013-04-04 11:22:00,76.7,70.0,30.01,SSE,163,16.1,16.1,79,0.00,,,0.00,TxWx,2013-04-04 15:22:00,
2013-04-04 11:23:00,76.7,70.0,30.01,SE,141,15.5,15.5,79,0.00,,,0.00,TxWx,2013-04-04 15:23:00,
2013-04-04 11:24:00,76.7,70.0,30.01,SE,141,10.5,15.5,79,0.00,,,0.00,TxWx,2013-04-04 15:24:00,
2013-04-04 11:25:00,76.7,70.0,30.00,SSE,163,14.2,14.9,79,0.00,,,0.00,TxWx,2013-04-04 15:25:00,
2013-04-04 11:27:00,77.0,70.0,30.01,South,186,8.7,14.2,80,0.00,,,0.00,TxWx,2013-04-04 15:27:00,
2013-04-04 11:29:00,77.1,70.0,30.01,SE,141,12.4,13.0,79,0.00,,,0.00,TxWx,2013-04-04 15:29:00,
2013-04-04 11:30:00,77.3,70.0,30.01,ESE,118,6.2,7.4,79,0.00,,,0.00,TxWx,2013-04-04 15:30:00,
2013-04-04 11:33:00,77.6,71.0,30.01,SE,141,13.0,14.2,79,0.00,,,0.00,TxWx,2013-04-04 15:33:00,
2013-04-04 11:34:00,77.8,71.0,30.01,South,186,6.2,6.2,78,0.00,,,0.00,TxWx,2013-04-04 15:34:00,
2013-04-04 11:35:00,77.7,71.0,30.01,ESE,118,8.7,13.6,78,0.00,,,0.00,TxWx,2013-04-04 15:35:00,
2013-04-04 11:36:00,77.7,71.0,30.01,SE,141,13.6,13.6,78,0.00,,,0.00,TxWx,2013-04-04 15:36:00,
2013-04-04 11:38:00,77.7,70.0,30.01,SSE,163,9.3,9.3,78,0.00,,,0.00,TxWx,2013-04-04 15:38:00,
2013-04-04 11:40:00,77.8,71.0,30.01,SSE,163,6.8,7.4,78,0.00,,,0.00,TxWx,2013-04-04 15:40:00,
2013-04-04 11:42:00,77.7,71.0,30.01,SSW,208,7.4,13.6,78,0.00,,,0.00,TxWx,2013-04-04 15:42:00,
2013-04-04 11:43:00,78.0,71.0,30.01,SSE,163,8.7,8.7,78,0.00,,,0.00,TxWx,2013-04-04 15:43:00,
2013-04-04 11:44:00,78.0,71.0,30.02,SE,141,6.8,6.8,78,0.00,,,0.00,TxWx,2013-04-04 15:44:00,
2013-04-04 11:47:00,78.2,71.0,30.01,SE,141,5.0,5.0,78,0.00,,,0.00,TxWx,2013-04-04 15:47:00,
2013-04-04 11:49:00,78.2,70.0,30.02,SE,141,5.0,5.0,78,0.00,,,0.00,TxWx,2013-04-04 15:49:00,
2013-04-04 11:50:00,78.4,71.0,30.02,SSE,163,7.4,7.4,78,0.00,,,0.00,TxWx,2013-04-04 15:50:00,
2013-04-04 11:54:00,78.3,70.0,30.02,SSE,163,8.0,8.7,78,0.00,,,0.00,TxWx,2013-04-04 15:54:00,
2013-04-04 11:55:00,78.3,70.0,30.02,SSE,163,9.9,9.9,78,0.00,,,0.00,TxWx,2013-04-04 15:55:00,
2013-04-04 11:56:00,78.4,70.0,30.02,SE,141,9.3,9.9,78,0.00,,,0.00,TxWx,2013-04-04 15:56:00,
2013-04-04 11:57:00,78.4,70.0,30.02,SSE,163,5.0,5.0,77,0.00,,,0.00,TxWx,2013-04-04 15:57:00,
2013-04-04 12:00:00,78.5,71.0,30.02,SSW,208,8.7,13.6,77,0.00,,,0.00,TxWx,2013-04-04 16:00:00,
2013-04-04 12:01:00,78.5,71.0,30.02,South,186,6.8,7.4,77,0.00,,,0.00,TxWx,2013-04-04 16:01:00,
2013-04-04 12:02:00,78.6,71.0,30.02,SE,141,7.4,7.4,77,0.00,,,0.00,TxWx,2013-04-04 16:02:00,
2013-04-04 12:03:00,78.6,71.0,30.02,SSE,163,8.7,8.7,77,0.00,,,0.00,TxWx,2013-04-04 16:03:00,
2013-04-04 12:05:00,78.8,71.0,30.02,SE,141,5.6,5.6,77,0.00,,,0.00,TxWx,2013-04-04 16:05:00,
2013-04-04 12:07:00,78.8,71.0,30.02,ESE,118,8.0,8.0,76,0.00,,,0.00,TxWx,2013-04-04 16:07:00,
2013-04-04 12:08:00,78.8,71.0,30.02,ESE,118,5.6,7.4,76,0.00,,,0.00,TxWx,2013-04-04 16:08:00,
2013-04-04 12:10:00,79.0,71.0,30.02,South,186,5.6,5.6,77,0.00,,,0.00,TxWx,2013-04-04 16:10:00,
2013-04-04 12:14:00,78.8,71.0,30.02,SSE,163,5.0,6.8,76,0.00,,,0.00,TxWx,2013-04-04 16:14:00,
2013-04-04 12:17:00,78.7,71.0,30.02,SE,141,8.0,9.3,76,0.00,,,0.00,TxWx,2013-04-04 16:17:00,
2013-04-04 12:18:00,78.6,71.0,30.02,ESE,118,8.0,10.5,76,0.00,,,0.00,TxWx,2013-04-04 16:18:00,
2013-04-04 12:20:00,78.7,71.0,30.02,SSE,163,7.4,8.0,76,0.00,,,0.00,TxWx,2013-04-04 16:20:00,
2013-04-04 12:24:00,77.7,70.0,30.02,SE,141,11.8,11.8,76,0.00,,,0.00,TxWx,2013-04-04 16:24:00,
2013-04-04 12:25:00,77.7,70.0,30.02,South,186,9.3,9.3,77,0.00,,,0.00,TxWx,2013-04-04 16:25:00,
2013-04-04 12:27:00,77.6,70.0,30.02,SE,141,6.8,8.0,78,0.00,,,0.00,TxWx,2013-04-04 16:27:00,
2013-04-04 12:30:00,77.3,70.0,30.02,SE,141,13.0,14.2,78,0.00,,,0.00,TxWx,2013-04-04 16:30:00,
2013-04-04 12:31:00,77.4,70.0,30.02,SE,141,9.3,9.3,78,0.00,,,0.00,TxWx,2013-04-04 16:31:00,
2013-04-04 12:35:00,76.7,70.0,30.02,SSE,163,13.0,13.0,79,0.00,,,0.00,TxWx,2013-04-04 16:35:00,
2013-04-04 12:37:00,76.7,70.0,30.02,South,186,11.1,11.8,79,0.00,,,0.00,TxWx,2013-04-04 16:37:00,
2013-04-04 12:39:00,76.7,70.0,30.01,SE,141,11.1,14.2,79,0.00,,,0.00,TxWx,2013-04-04 16:39:00,
2013-04-04 12:43:00,76.7,70.0,30.01,SSE,163,10.5,10.5,80,0.00,,,0.00,TxWx,2013-04-04 16:43:00,
2013-04-04 12:44:00,76.6,71.0,30.01,South,186,8.7,9.3,81,0.00,,,0.00,TxWx,2013-04-04 16:44:00,
2013-04-04 12:45:00,76.8,71.0,30.02,SSE,163,7.4,7.4,81,0.00,,,0.00,TxWx,2013-04-04 16:45:00,
2013-04-04 12:48:00,77.0,71.0,30.02,SE,141,9.3,11.1,81,0.00,,,0.00,TxWx,2013-04-04 16:48:00,
2013-04-04 12:50:00,77.1,71.0,30.02,SE,141,11.1,11.1,81,0.00,,,0.00,TxWx,2013-04-04 16:50:00,
2013-04-04 12:53:00,77.3,70.0,30.01,SSE,163,8.7,9.3,80,0.00,,,0.00,TxWx,2013-04-04 16:53:00,
2013-04-04 12:56:00,77.4,70.0,30.01,South,186,6.8,6.8,80,0.00,,,0.00,TxWx,2013-04-04 16:56:00,
2013-04-04 13:00:00,77.7,71.0,30.01,SE,141,13.6,13.6,80,0.00,,,0.00,TxWx,2013-04-04 17:00:00,
2013-04-04 13:01:00,77.9,71.0,30.01,SE,141,9.9,9.9,79,0.00,,,0.00,TxWx,2013-04-04 17:01:00,
2013-04-04 13:02:00,77.7,71.0,30.01,East,96,11.1,14.2,79,0.00,,,0.00,TxWx,2013-04-04 17:02:00,
2013-04-04 13:05:00,77.5,71.0,30.01,SE,141,14.2,14.2,79,0.00,,,0.00,TxWx,2013-04-04 17:05:00,
2013-04-04 13:07:00,77.4,70.0,30.01,SE,141,8.0,9.3,79,0.00,,,0.00,TxWx,2013-04-04 17:07:00,
2013-04-04 13:09:00,77.3,70.0,30.01,SE,141,9.9,13.6,79,0.00,,,0.00,TxWx,2013-04-04 17:09:00,
2013-04-04 13:11:00,77.3,70.0,30.01,ESE,118,8.7,11.8,79,0.00,,,0.00,TxWx,2013-04-04 17:11:00,
2013-04-04 13:12:00,77.3,70.0,30.01,South,186,10.5,10.5,80,0.00,,,0.00,TxWx,2013-04-04 17:12:00,
2013-04-04 13:13:00,77.4,70.0,30.01,SE,141,6.8,6.8,80,0.00,,,0.00,TxWx,2013-04-04 17:13:00,
2013-04-04 13:14:00,77.4,70.0,30.01,South,186,9.3,9.9,80,0.00,,,0.00,TxWx,2013-04-04 17:14:00,
2013-04-04 13:16:00,77.4,70.0,30.01,SSE,163,6.2,10.5,80,0.00,,,0.00,TxWx,2013-04-04 17:16:00,
2013-04-04 13:17:00,77.4,70.0,30.01,SE,141,10.5,13.0,80,0.00,,,0.00,TxWx,2013-04-04 17:17:00,
2013-04-04 13:21:00,77.7,71.0,30.01,SE,141,7.4,7.4,80,0.00,,,0.00,TxWx,2013-04-04 17:21:00,
2013-04-04 13:22:00,77.4,70.0,30.01,SE,141,9.9,9.9,80,0.00,,,0.00,TxWx,2013-04-04 17:22:00,
2013-04-04 13:23:00,77.4,70.0,30.01,SSE,163,5.6,5.6,79,0.00,,,0.00,TxWx,2013-04-04 17:23:00,
2013-04-04 13:27:00,77.0,70.0,30.01,SSE,163,12.4,12.4,80,0.00,,,0.00,TxWx,2013-04-04 17:27:00,
2013-04-04 13:28:00,76.8,70.0,30.01,SE,141,9.3,9.9,80,0.00,,,0.00,TxWx,2013-04-04 17:28:00,
2013-04-04 13:29:00,76.9,70.0,30.01,SE,141,13.6,13.6,80,0.00,,,0.00,TxWx,2013-04-04 17:29:00,
2013-04-04 13:32:00,77.0,71.0,30.01,SSE,163,8.0,9.9,81,0.00,,,0.00,TxWx,2013-04-04 17:32:00,
2013-04-04 13:34:00,77.0,71.0,30.01,SE,141,9.3,11.8,81,0.00,,,0.00,TxWx,2013-04-04 17:34:00,
2013-04-04 13:38:00,77.4,71.0,30.01,SE,141,7.4,7.4,81,0.00,,,0.00,TxWx,2013-04-04 17:38:00,
2013-04-04 13:39:00,77.5,72.0,30.01,South,186,11.8,11.8,81,0.00,,,0.00,TxWx,2013-04-04 17:39:00,
2013-04-04 13:40:00,77.4,71.0,30.01,SSE,163,10.5,11.8,81,0.00,,,0.00,TxWx,2013-04-04 17:40:00,
2013-04-04 13:43:00,77.8,71.0,30.01,South,186,6.8,7.4,80,0.00,,,0.00,TxWx,2013-04-04 17:43:00,
2013-04-04 13:44:00,77.6,71.0,30.00,SE,141,11.1,11.1,80,0.00,,,0.00,TxWx,2013-04-04 17:44:00,
2013-04-04 13:46:00,77.4,70.0,30.00,SSE,163,11.8,11.8,80,0.00,,,0.00,TxWx,2013-04-04 17:46:00,
2013-04-04 13:49:00,77.2,70.0,30.00,SE,141,11.1,11.1,80,0.00,,,0.00,TxWx,2013-04-04 17:49:00,
2013-04-04 13:50:00,77.2,70.0,30.00,SE,141,9.9,11.1,80,0.00,,,0.00,TxWx,2013-04-04 17:50:00,
2013-04-04 13:51:00,77.1,70.0,30.00,SE,141,8.7,11.1,80,0.00,,,0.00,TxWx,2013-04-04 17:51:00,
2013-04-04 13:52:00,77.0,70.0,30.00,SE,141,11.8,12.4,80,0.00,,,0.00,TxWx,2013-04-04 17:52:00,
2013-04-04 13:55:00,77.2,71.0,30.00,SSE,163,10.5,11.8,81,0.00,,,0.00,TxWx,2013-04-04 17:55:00,
2013-04-04 13:56:00,77.2,71.0,30.00,SSE,163,13.6,13.6,81,0.00,,,0.00,TxWx,2013-04-04 17:56:00,
2013-04-04 13:58:00,77.1,71.0,30.00,SE,141,7.4,9.3,81,0.00,,,0.00,TxWx,2013-04-04 17:58:00,
2013-04-04 14:01:00,77.0,71.0,30.00,SSE,163,8.7,9.3,81,0.00,,,0.00,TxWx,2013-04-04 18:01:00,
2013-04-04 14:02:00,77.1,71.0,30.00,SSE,163,8.0,9.3,81,0.00,,,0.00,TxWx,2013-04-04 18:02:00,
2013-04-04 14:04:00,77.1,71.0,30.00,SE,141,11.8,12.4,81,0.00,,,0.00,TxWx,2013-04-04 18:04:00,
2013-04-04 14:06:00,77.1,71.0,30.00,SSE,163,11.8,11.8,82,0.00,,,0.00,TxWx,2013-04-04 18:06:00,
2013-04-04 14:08:00,77.3,71.0,30.00,SSE,163,9.9,10.5,82,0.00,,,0.00,TxWx,2013-04-04 18:08:00,
2013-04-04 14:09:00,77.1,71.0,29.99,SSE,163,11.8,11.8,81,0.00,,,0.00,TxWx,2013-04-04 18:09:00,
2013-04-04 14:12:00,77.1,71.0,29.99,SSE,163,9.9,9.9,81,0.00,,,0.00,TxWx,2013-04-04 18:12:00,
2013-04-04 14:15:00,77.1,71.0,29.99,SE,141,12.4,12.4,82,0.00,,,0.00,TxWx,2013-04-04 18:15:00,
2013-04-04 14:17:00,77.0,71.0,29.99,SSE,163,13.6,13.6,82,0.00,,,0.00,TxWx,2013-04-04 18:17:00,
2013-04-04 14:18:00,77.0,71.0,29.99,SE,141,10.5,12.4,82,0.00,,,0.00,TxWx,2013-04-04 18:18:00,
2013-04-04 14:20:00,77.1,71.0,29.99,SE,141,8.7,8.7,82,0.00,,,0.00,TxWx,2013-04-04 18:20:00,
2013-04-04 14:21:00,77.0,71.0,29.99,SSE,163,12.4,16.1,82,0.00,,,0.00,TxWx,2013-04-04 18:21:00,
2013-04-04 14:23:00,77.1,71.0,29.99,SSE,163,8.7,8.7,82,0.00,,,0.00,TxWx,2013-04-04 18:23:00,
2013-04-04 14:26:00,77.0,71.0,29.98,SE,141,12.4,12.4,81,0.00,,,0.00,TxWx,2013-04-04 18:26:00,
2013-04-04 14:27:00,76.9,71.0,29.98,SE,141,11.8,15.5,82,0.00,,,0.00,TxWx,2013-04-04 18:27:00,
2013-04-04 14:28:00,76.9,71.0,29.98,SE,141,9.9,9.9,82,0.00,,,0.00,TxWx,2013-04-04 18:28:00,
2013-04-04 14:29:00,76.8,71.0,29.98,SE,141,10.5,13.6,82,0.00,,,0.00,TxWx,2013-04-04 18:29:00,
2013-04-04 14:31:00,77.0,71.0,29.98,ESE,118,9.3,10.5,82,0.00,,,0.00,TxWx,2013-04-04 18:31:00,
2013-04-04 14:35:00,77.2,71.0,29.98,SSE,163,13.0,13.0,82,0.00,,,0.00,TxWx,2013-04-04 18:35:00,
2013-04-04 14:36:00,77.3,71.0,29.98,SSE,163,10.5,11.8,82,0.00,,,0.00,TxWx,2013-04-04 18:36:00,
2013-04-04 14:37:00,77.2,71.0,29.98,SE,141,9.9,12.4,82,0.00,,,0.00,TxWx,2013-04-04 18:37:00,
2013-04-04 14:41:00,77.4,71.0,29.98,SSE,163,12.4,12.4,82,0.00,,,0.00,TxWx,2013-04-04 18:41:00,
2013-04-04 14:42:00,77.4,71.0,29.98,SSE,163,9.9,11.8,82,0.00,,,0.00,TxWx,2013-04-04 18:42:00,
2013-04-04 14:44:00,77.2,71.0,29.98,SE,141,11.8,13.0,82,0.00,,,0.00,TxWx,2013-04-04 18:44:00,
2013-04-04 14:47:00,77.1,71.0,29.98,ESE,118,12.4,13.6,82,0.00,,,0.00,TxWx,2013-04-04 18:47:00,
2013-04-04 14:49:00,76.9,71.0,29.98,SSE,163,13.0,13.0,82,0.00,,,0.00,TxWx,2013-04-04 18:49:00,
2013-04-04 14:50:00,77.0,71.0,29.97,SSE,163,12.4,12.4,82,0.00,,,0.00,TxWx,2013-04-04 18:50:00,
2013-04-04 14:53:00,76.9,71.0,29.97,SSE,163,12.4,14.2,82,0.00,,,0.00,TxWx,2013-04-04 18:53:00,
2013-04-04 14:54:00,76.9,71.0,29.97,SSE,163,11.1,11.8,82,0.00,,,0.00,TxWx,2013-04-04 18:54:00,
2013-04-04 14:56:00,76.9,71.0,29.97,South,186,12.4,12.4,82,0.00,,,0.00,TxWx,2013-04-04 18:56:00,
2013-04-04 14:58:00,76.8,71.0,29.96,SE,141,13.0,13.0,83,0.00,,,0.00,TxWx,2013-04-04 18:58:00,
2013-04-04 15:00:00,76.8,71.0,29.96,SSE,163,14.2,14.2,83,0.00,,,0.00,TxWx,2013-04-04 19:00:00,
2013-04-04 15:01:00,76.8,71.0,29.96,SE,141,9.9,13.0,83,0.00,,,0.00,TxWx,2013-04-04 19:01:00,
2013-04-04 15:03:00,76.8,71.0,29.96,SE,141,11.8,11.8,83,0.00,,,0.00,TxWx,2013-04-04 19:03:00,
2013-04-04 15:06:00,76.8,71.0,29.95,SE,141,13.6,13.6,83,0.00,,,0.00,TxWx,2013-04-04 19:06:00,
2013-04-04 15:07:00,76.7,71.0,29.96,SSE,163,14.2,14.2,83,0.00,,,0.00,TxWx,2013-04-04 19:07:00,
2013-04-04 15:09:00,76.7,71.0,29.96,SE,141,11.1,16.7,83,0.00,,,0.00,TxWx,2013-04-04 19:09:00,
2013-04-04 15:11:00,76.7,72.0,29.95,SSE,163,12.4,13.0,84,0.00,,,0.00,TxWx,2013-04-04 19:11:00,
2013-04-04 15:14:00,76.6,71.0,29.95,SSE,163,16.7,16.7,83,0.00,,,0.00,TxWx,2013-04-04 19:14:00,
2013-04-04 15:17:00,76.7,71.0,29.95,SSE,163,12.4,12.4,83,0.00,,,0.00,TxWx,2013-04-04 19:17:00,
2013-04-04 15:19:00,76.7,71.0,29.95,SE,141,9.9,11.8,83,0.00,,,0.00,TxWx,2013-04-04 19:19:00,
2013-04-04 15:20:00,76.6,71.0,29.95,SE,141,11.1,11.8,83,0.00,,,0.00,TxWx,2013-04-04 19:20:00,
2013-04-04 15:23:00,76.6,71.0,29.95,SSE,163,13.0,13.6,83,0.00,,,0.00,TxWx,2013-04-04 19:23:00,
2013-04-04 15:24:00,76.7,71.0,29.95,SE,141,10.5,11.8,83,0.00,,,0.00,TxWx,2013-04-04 19:24:00,
2013-04-04 15:25:00,76.7,71.0,29.95,SE,141,8.0,11.1,83,0.00,,,0.00,TxWx,2013-04-04 19:25:00,
2013-04-04 15:29:00,76.7,71.0,29.95,SSE,163,10.5,10.5,83,0.00,,,0.00,TxWx,2013-04-04 19:29:00,
2013-04-04 15:30:00,76.6,71.0,29.95,SE,141,11.8,12.4,83,0.00,,,0.00,TxWx,2013-04-04 19:30:00,
2013-04-04 15:34:00,76.7,72.0,29.95,SE,141,11.1,11.1,84,0.00,,,0.00,TxWx,2013-04-04 19:34:00,
2013-04-04 15:35:00,76.7,72.0,29.95,SSE,163,11.1,13.0,84,0.00,,,0.00,TxWx,2013-04-04 19:35:00,
2013-04-04 15:39:00,76.7,71.0,29.94,SE,141,8.0,8.7,83,0.00,,,0.00,TxWx,2013-04-04 19:39:00,
2013-04-04 15:41:00,76.7,72.0,29.95,SSE,163,9.3,11.8,84,0.00,,,0.00,TxWx,2013-04-04 19:41:00,
2013-04-04 15:42:00,76.7,72.0,29.95,SSE,163,9.9,10.5,84,0.00,,,0.00,TxWx,2013-04-04 19:42:00,
2013-04-04 15:47:00,76.7,72.0,29.94,SE,141,13.6,13.6,84,0.00,,,0.00,TxWx,2013-04-04 19:47:00,
2013-04-04 15:48:00,76.7,71.0,29.94,SE,141,11.1,11.1,83,0.00,,,0.00,TxWx,2013-04-04 19:48:00,
2013-04-04 15:52:00,76.7,72.0,29.94,SSE,163,11.1,12.4,84,0.00,,,0.00,TxWx,2013-04-04 19:52:00,
2013-04-04 15:53:00,76.7,72.0,29.94,SE,141,11.8,14.9,84,0.00,,,0.00,TxWx,2013-04-04 19:53:00,
2013-04-04 15:55:00,76.7,72.0,29.94,SE,141,11.1,11.1,84,0.00,,,0.00,TxWx,2013-04-04 19:55:00,
2013-04-04 15:57:00,76.7,72.0,29.94,SSE,163,11.1,12.4,84,0.00,,,0.00,TxWx,2013-04-04 19:57:00,
2013-04-04 16:00:00,76.8,72.0,29.94,SE,141,9.9,10.5,84,0.00,,,0.00,TxWx,2013-04-04 20:00:00,
2013-04-04 16:02:00,76.7,72.0,29.93,SSE,163,11.1,11.8,84,0.00,,,0.00,TxWx,2013-04-04 20:02:00,
2013-04-04 16:04:00,76.7,72.0,29.94,SSE,163,13.0,13.0,84,0.00,,,0.00,TxWx,2013-04-04 20:04:00,
2013-04-04 16:06:00,76.7,72.0,29.94,SSE,163,11.8,11.8,84,0.00,,,0.00,TxWx,2013-04-04 20:06:00,
2013-04-04 16:07:00,76.7,72.0,29.94,SE,141,11.8,11.8,84,0.00,,,0.00,TxWx,2013-04-04 20:07:00,
2013-04-04 16:11:00,76.6,72.0,29.93,SSE,163,10.5,11.8,84,0.00,,,0.00,TxWx,2013-04-04 20:11:00,
2013-04-04 16:12:00,76.5,72.0,29.93,SE,141,9.9,13.0,84,0.00,,,0.00,TxWx,2013-04-04 20:12:00,
2013-04-04 16:14:00,76.6,72.0,29.94,South,186,13.6,15.5,84,0.00,,,0.00,TxWx,2013-04-04 20:14:00,
2013-04-04 16:16:00,76.8,72.0,29.94,SSE,163,10.5,11.8,84,0.00,,,0.00,TxWx,2013-04-04 20:16:00,
2013-04-04 16:17:00,76.9,72.0,29.94,SSE,163,9.3,9.3,84,0.00,,,0.00,TxWx,2013-04-04 20:17:00,
2013-04-04 16:18:00,77.0,72.0,29.94,SE,141,6.2,6.2,84,0.00,,,0.00,TxWx,2013-04-04 20:18:00,
2013-04-04 16:21:00,76.8,71.0,29.94,SSE,163,9.9,11.1,83,0.00,,,0.00,TxWx,2013-04-04 20:21:00,
2013-04-04 16:22:00,76.9,71.0,29.94,SSE,163,13.6,13.6,83,0.00,,,0.00,TxWx,2013-04-04 20:22:00,
2013-04-04 16:23:00,76.8,71.0,29.94,SE,141,12.4,12.4,83,0.00,,,0.00,TxWx,2013-04-04 20:23:00,
2013-04-04 16:24:00,76.8,71.0,29.94,SSE,163,14.2,14.2,83,0.00,,,0.00,TxWx,2013-04-04 20:24:00,
2013-04-04 16:27:00,76.7,71.0,29.94,ESE,118,9.9,12.4,83,0.00,,,0.00,TxWx,2013-04-04 20:27:00,
2013-04-04 16:28:00,76.6,71.0,29.94,SE,141,17.3,17.3,83,0.00,,,0.00,TxWx,2013-04-04 20:28:00,
2013-04-04 16:29:00,76.7,71.0,29.93,SE,141,14.9,14.9,83,0.00,,,0.00,TxWx,2013-04-04 20:29:00,
2013-04-04 16:32:00,76.5,71.0,29.93,SSE,163,11.1,14.2,83,0.00,,,0.00,TxWx,2013-04-04 20:32:00,
2013-04-04 16:34:00,76.5,71.0,29.93,SSE,163,12.4,13.6,83,0.00,,,0.00,TxWx,2013-04-04 20:34:00,
2013-04-04 16:37:00,76.4,71.0,29.92,SSE,163,13.6,13.6,84,0.00,,,0.00,TxWx,2013-04-04 20:37:00,
2013-04-04 16:39:00,76.5,71.0,29.92,SE,141,9.9,11.1,84,0.00,,,0.00,TxWx,2013-04-04 20:39:00,
2013-04-04 16:41:00,76.4,71.0,29.93,SSE,163,13.0,16.7,84,0.00,,,0.00,TxWx,2013-04-04 20:41:00,
2013-04-04 16:43:00,76.4,71.0,29.93,SSE,163,14.2,14.2,84,0.00,,,0.00,TxWx,2013-04-04 20:43:00,
2013-04-04 16:44:00,76.4,71.0,29.93,SSE,163,14.2,14.9,84,0.00,,,0.00,TxWx,2013-04-04 20:44:00,
2013-04-04 16:47:00,76.6,72.0,29.94,South,186,10.5,11.8,84,0.00,,,0.00,TxWx,2013-04-04 20:47:00,
2013-04-04 16:48:00,76.6,72.0,29.94,SSE,163,13.0,13.0,84,0.00,,,0.00,TxWx,2013-04-04 20:48:00,
2013-04-04 16:50:00,76.7,72.0,29.94,SSE,163,6.2,8.7,84,0.00,,,0.00,TxWx,2013-04-04 20:50:00,
2013-04-04 16:52:00,76.7,72.0,29.93,ESE,118,4.3,6.8,84,0.00,,,0.00,TxWx,2013-04-04 20:52:00,
2013-04-04 16:55:00,76.6,72.0,29.94,SSE,163,9.9,11.1,84,0.00,,,0.00,TxWx,2013-04-04 20:55:00,
2013-04-04 16:56:00,76.6,72.0,29.94,SE,141,8.7,9.9,84,0.00,,,0.00,TxWx,2013-04-04 20:56:00,
2013-04-04 16:57:00,76.6,72.0,29.94,SE,141,8.0,9.3,84,0.00,,,0.00,TxWx,2013-04-04 20:57:00,
2013-04-04 16:59:00,76.7,72.0,29.94,South,186,4.3,4.3,84,0.00,,,0.00,TxWx,2013-04-04 20:59:00,
2013-04-04 17:00:00,76.7,72.0,29.94,SE,141,5.0,5.0,84,0.00,,,0.00,TxWx,2013-04-04 21:00:00,
2013-04-04 17:03:00,76.7,72.0,29.95,SE,141,5.0,5.0,84,0.00,,,0.00,TxWx,2013-04-04 21:03:00,
2013-04-04 17:04:00,76.7,72.0,29.95,West,276,3.7,5.0,84,0.00,,,0.00,TxWx,2013-04-04 21:04:00,
2013-04-04 17:05:00,76.7,72.0,29.95,South,186,6.2,6.2,84,0.00,,,0.00,TxWx,2013-04-04 21:05:00,
2013-04-04 17:08:00,76.6,72.0,29.95,SE,141,6.2,6.2,84,0.00,,,0.00,TxWx,2013-04-04 21:08:00,
2013-04-04 17:09:00,76.6,72.0,29.96,South,186,6.2,6.2,84,0.00,,,0.00,TxWx,2013-04-04 21:09:00,
2013-04-04 17:10:00,76.6,72.0,29.96,SSE,163,9.9,9.9,84,0.00,,,0.00,TxWx,2013-04-04 21:10:00,
2013-04-04 17:12:00,76.6,72.0,29.96,SE,141,9.3,14.2,84,0.00,,,0.00,TxWx,2013-04-04 21:12:00,
2013-04-04 17:14:00,76.8,72.0,29.97,South,186,6.2,6.2,84,0.00,,,0.00,TxWx,2013-04-04 21:14:00,
2013-04-04 17:15:00,76.8,72.0,29.97,SSW,208,2.5,3.1,84,0.00,,,0.00,TxWx,2013-04-04 21:15:00,
2013-04-04 17:16:00,76.8,72.0,29.98,WNW,298,2.5,3.1,84,0.00,,,0.00,TxWx,2013-04-04 21:16:00,
2013-04-04 17:18:00,74.3,67.0,29.99,NW,321,9.9,11.8,78,0.00,,,0.00,TxWx,2013-04-04 21:18:00,
2013-04-04 17:20:00,73.0,66.0,30.00,WNW,298,6.8,8.0,78,0.00,,,0.00,TxWx,2013-04-04 21:20:00,
2013-04-04 17:21:00,72.7,66.0,30.00,NW,321,8.0,8.0,78,0.00,,,0.00,TxWx,2013-04-04 21:21:00,
2013-04-04 17:22:00,71.6,65.0,29.99,NNW,343,13.0,14.2,79,0.00,,,0.01,TxWx,2013-04-04 21:22:00,
2013-04-04 17:23:00,71.6,66.0,29.99,West,276,15.5,15.5,81,0.00,,,0.03,TxWx,2013-04-04 21:23:00,
2013-04-04 17:27:00,70.1,65.0,29.99,West,276,19.8,22.9,85,0.00,,,0.11,TxWx,2013-04-04 21:27:00,
2013-04-04 17:29:00,69.6,66.0,30.00,WNW,298,16.7,20.4,87,0.00,,,0.15,TxWx,2013-04-04 21:29:00,
2013-04-04 17:32:00,69.6,67.0,30.01,WNW,298,9.9,11.8,89,1.14,,,0.29,TxWx,2013-04-04 21:32:00,
2013-04-04 17:33:00,69.5,67.0,30.01,NNW,343,5.0,5.0,89,1.14,,,0.34,TxWx,2013-04-04 21:33:00,
2013-04-04 17:35:00,69.3,66.0,30.01,WNW,298,3.1,3.1,89,1.14,,,0.40,TxWx,2013-04-04 21:35:00,
2013-04-04 17:39:00,68.8,66.0,30.02,East,96,3.1,3.1,89,1.14,,,0.44,TxWx,2013-04-04 21:39:00,
2013-04-04 17:41:00,68.7,66.0,30.02,NNE,28,3.1,3.1,90,1.50,,,0.44,TxWx,2013-04-04 21:41:00,
2013-04-04 17:43:00,68.8,66.0,30.01,NNE,28,3.1,3.7,90,1.50,,,0.45,TxWx,2013-04-04 21:43:00,
2013-04-04 17:44:00,68.7,66.0,30.01,West,276,2.5,2.5,90,1.50,,,0.45,TxWx,2013-04-04 21:44:00,
2013-04-04 17:46:00,68.5,65.0,30.01,NW,321,5.0,5.0,90,1.50,,,0.45,TxWx,2013-04-04 21:46:00,
2013-04-04 17:48:00,68.5,65.0,30.01,West,276,1.9,1.9,90,1.50,,,0.45,TxWx,2013-04-04 21:48:00,
2013-04-04 17:49:00,68.5,66.0,30.01,NNW,343,3.1,3.7,90,1.50,,,0.45,TxWx,2013-04-04 21:49:00,
2013-04-04 17:51:00,68.5,66.0,30.01,WNW,298,1.9,1.9,90,0.12,,,0.46,TxWx,2013-04-04 21:51:00,
2013-04-04 17:52:00,68.5,65.0,30.01,NW,321,2.5,2.5,91,0.12,,,0.46,TxWx,2013-04-04 21:52:00,
2013-04-04 17:54:00,68.5,65.0,30.01,West,276,3.7,5.6,91,0.12,,,0.46,TxWx,2013-04-04 21:54:00,
2013-04-04 17:55:00,68.5,66.0,30.00,North,6,5.0,6.2,91,0.12,,,0.46,TxWx,2013-04-04 21:55:00,
2013-04-04 17:57:00,68.6,66.0,30.00,West,276,5.0,6.2,91,0.12,,,0.46,TxWx,2013-04-04 21:57:00,
2013-04-04 17:59:00,68.7,66.0,30.00,WNW,298,3.7,3.7,91,0.12,,,0.46,TxWx,2013-04-04 21:59:00,
2013-04-04 18:01:00,68.5,66.0,30.00,WNW,298,5.6,6.8,91,0.00,,,0.46,TxWx,2013-04-04 22:01:00,
2013-04-04 18:02:00,68.8,66.0,30.01,NW,321,4.3,5.0,91,0.00,,,0.47,TxWx,2013-04-04 22:02:00,
2013-04-04 18:04:00,68.6,66.0,30.00,NW,321,4.3,4.3,91,0.00,,,0.47,TxWx,2013-04-04 22:04:00,
2013-04-04 18:05:00,68.7,66.0,30.01,NW,321,6.8,6.8,91,0.00,,,0.47,TxWx,2013-04-04 22:05:00,
2013-04-04 18:07:00,68.6,66.0,30.00,WNW,298,5.0,6.2,91,0.00,,,0.47,TxWx,2013-04-04 22:07:00,
2013-04-04 18:10:00,68.6,66.0,30.00,WNW,298,4.3,5.0,91,0.06,,,0.47,TxWx,2013-04-04 22:10:00,
2013-04-04 18:12:00,68.5,65.0,30.01,NW,321,5.6,6.2,91,0.06,,,0.47,TxWx,2013-04-04 22:12:00,
2013-04-04 18:13:00,68.5,65.0,30.01,NW,321,3.1,3.1,91,0.06,,,0.47,TxWx,2013-04-04 22:13:00,
2013-04-04 18:15:00,68.6,66.0,30.01,WNW,298,3.1,3.7,91,0.06,,,0.47,TxWx,2013-04-04 22:15:00,
2013-04-04 18:18:00,68.5,66.0,30.01,NW,321,3.1,3.7,91,0.06,,,0.47,TxWx,2013-04-04 22:18:00,
2013-04-04 18:19:00,68.6,66.0,30.00,NNW,343,2.5,3.1,91,0.06,,,0.48,TxWx,2013-04-04 22:19:00,
2013-04-04 18:20:00,68.7,66.0,30.00,NNE,28,3.7,4.3,91,0.06,,,0.48,TxWx,2013-04-04 22:20:00,
2013-04-04 18:22:00,68.5,66.0,30.00,North,6,6.2,7.4,91,0.06,,,0.48,TxWx,2013-04-04 22:22:00,
2013-04-04 18:23:00,68.6,66.0,30.00,WNW,298,3.1,3.7,91,0.06,,,0.48,TxWx,2013-04-04 22:23:00,
2013-04-04 18:24:00,68.7,66.0,30.00,NE,51,2.5,3.1,91,0.06,,,0.48,TxWx,2013-04-04 22:24:00,
2013-04-04 18:26:00,68.7,66.0,30.00,NNW,343,5.6,5.6,91,0.06,,,0.48,TxWx,2013-04-04 22:26:00,
2013-04-04 18:27:00,68.7,66.0,30.00,North,6,3.7,3.7,91,0.06,,,0.48,TxWx,2013-04-04 22:27:00,
2013-04-04 18:28:00,68.7,66.0,30.00,NW,321,3.1,3.7,91,0.06,,,0.48,TxWx,2013-04-04 22:28:00,
2013-04-04 18:29:00,68.7,66.0,30.00,NNE,28,5.6,5.6,91,0.06,,,0.48,TxWx,2013-04-04 22:29:00,
2013-04-04 18:33:00,68.8,66.0,30.00,NW,321,1.9,1.9,91,0.00,,,0.48,TxWx,2013-04-04 22:33:00,
2013-04-04 18:34:00,68.9,66.0,30.00,NW,321,1.9,2.5,91,0.00,,,0.48,TxWx,2013-04-04 22:34:00,
2013-04-04 18:35:00,68.9,66.0,30.00,NNW,343,1.9,1.9,91,0.00,,,0.48,TxWx,2013-04-04 22:35:00,
2013-04-04 18:39:00,68.9,66.0,30.00,NE,51,6.8,8.0,91,0.00,,,0.49,TxWx,2013-04-04 22:39:00,
2013-04-04 18:40:00,68.8,66.0,30.00,NE,51,5.0,6.2,91,0.06,,,0.49,TxWx,2013-04-04 22:40:00,
2013-04-04 18:41:00,68.9,66.0,30.00,ENE,73,1.9,1.9,91,0.06,,,0.49,TxWx,2013-04-04 22:41:00,
2013-04-04 18:45:00,68.6,66.0,30.00,North,6,5.6,5.6,91,0.06,,,0.50,TxWx,2013-04-04 22:45:00,
2013-04-04 18:46:00,68.6,66.0,30.00,NNE,28,2.5,3.1,91,0.06,,,0.50,TxWx,2013-04-04 22:46:00,
2013-04-04 18:47:00,68.6,66.0,30.00,NNW,343,2.5,2.5,91,0.06,,,0.50,TxWx,2013-04-04 22:47:00,
2013-04-04 18:50:00,68.9,66.0,30.00,NNE,28,2.5,3.1,91,0.06,,,0.50,TxWx,2013-04-04 22:50:00,
2013-04-04 18:51:00,69.0,66.0,30.00,North,6,3.1,3.1,91,0.06,,,0.50,TxWx,2013-04-04 22:51:00,
2013-04-04 18:53:00,69.0,66.0,30.00,WNW,298,2.5,3.7,91,0.06,,,0.50,TxWx,2013-04-04 22:53:00,
2013-04-04 18:54:00,69.0,66.0,30.00,ENE,73,4.3,4.3,91,0.06,,,0.50,TxWx,2013-04-04 22:54:00,
2013-04-04 18:56:00,69.1,66.0,30.00,East,96,3.7,3.7,91,0.06,,,0.50,TxWx,2013-04-04 22:56:00,
2013-04-04 18:57:00,69.1,66.0,30.00,ENE,73,2.5,3.1,91,0.06,,,0.50,TxWx,2013-04-04 22:57:00,
2013-04-04 18:58:00,69.1,66.0,30.00,NNE,28,4.3,4.3,91,0.06,,,0.50,TxWx,2013-04-04 22:58:00,
2013-04-04 19:01:00,69.1,66.0,29.99,ENE,73,1.2,1.9,91,0.00,,,0.50,TxWx,2013-04-04 23:01:00,
2013-04-04 19:03:00,69.1,66.0,29.99,East,96,4.3,4.3,91,0.00,,,0.50,TxWx,2013-04-04 23:03:00,
2013-04-04 19:05:00,69.0,66.0,29.99,NNW,343,4.3,5.0,91,0.00,,,0.51,TxWx,2013-04-04 23:05:00,
2013-04-04 19:08:00,68.9,66.0,29.99,NE,51,5.6,5.6,91,0.00,,,0.51,TxWx,2013-04-04 23:08:00,
2013-04-04 19:09:00,69.0,66.0,29.99,NE,51,8.0,8.0,91,0.00,,,0.51,TxWx,2013-04-04 23:09:00,
2013-04-04 19:10:00,69.1,66.0,29.99,ENE,73,3.1,5.0,91,0.00,,,0.51,TxWx,2013-04-04 23:10:00,
2013-04-04 19:12:00,69.1,66.0,29.99,NNE,28,6.2,6.2,91,0.06,,,0.51,TxWx,2013-04-04 23:12:00,
2013-04-04 19:15:00,69.3,66.0,29.98,ENE,73,6.2,6.8,91,0.06,,,0.51,TxWx,2013-04-04 23:15:00,
2013-04-04 19:17:00,69.5,66.0,29.98,East,96,5.6,6.8,91,0.06,,,0.51,TxWx,2013-04-04 23:17:00,
2013-04-04 19:18:00,69.6,67.0,29.98,NNW,343,3.1,3.7,91,0.06,,,0.52,TxWx,2013-04-04 23:18:00,
2013-04-04 19:21:00,69.2,66.0,29.98,ENE,73,8.0,8.7,91,0.06,,,0.52,TxWx,2013-04-04 23:21:00,
2013-04-04 19:22:00,69.2,66.0,29.98,NNE,28,6.8,6.8,91,0.06,,,0.52,TxWx,2013-04-04 23:22:00,
2013-04-04 19:24:00,69.6,67.0,29.97,East,96,8.7,8.7,91,0.06,,,0.52,TxWx,2013-04-04 23:24:00,
2013-04-04 19:25:00,69.5,67.0,29.97,East,96,8.7,9.9,91,0.06,,,0.52,TxWx,2013-04-04 23:25:00,
2013-04-04 19:27:00,69.6,67.0,29.97,ESE,118,7.4,7.4,91,0.06,,,0.52,TxWx,2013-04-04 23:27:00,
2013-04-04 19:28:00,69.6,67.0,29.97,East,96,6.8,7.4,91,0.06,,,0.52,TxWx,2013-04-04 23:28:00,
2013-04-04 19:29:00,69.6,67.0,29.97,East,96,8.7,8.7,91,0.06,,,0.52,TxWx,2013-04-04 23:29:00,
2013-04-04 19:31:00,69.5,67.0,29.97,East,96,8.0,8.0,91,0.00,,,0.52,TxWx,2013-04-04 23:31:00,
2013-04-04 19:34:00,69.6,67.0,29.96,NE,51,8.0,9.9,90,0.00,,,0.52,TxWx,2013-04-04 23:34:00,
2013-04-04 19:35:00,69.4,66.0,29.96,NE,51,11.8,11.8,90,0.00,,,0.52,TxWx,2013-04-04 23:35:00,
2013-04-04 19:36:00,69.6,67.0,29.96,East,96,11.8,11.8,90,0.00,,,0.52,TxWx,2013-04-04 23:36:00,
2013-04-04 19:39:00,69.9,67.0,29.96,East,96,11.1,11.8,90,0.00,,,0.52,TxWx,2013-04-04 23:39:00,
2013-04-04 19:41:00,69.5,66.0,29.95,ESE,118,9.9,9.9,89,0.00,,,0.52,TxWx,2013-04-04 23:41:00,
2013-04-04 19:42:00,69.5,67.0,29.95,ENE,73,14.2,14.2,89,0.00,,,0.52,TxWx,2013-04-04 23:42:00,
2013-04-04 19:45:00,69.9,66.0,29.94,East,96,16.7,16.7,88,0.00,,,0.52,TxWx,2013-04-04 23:45:00,
2013-04-04 19:46:00,70.0,66.0,29.93,ENE,73,14.2,16.7,87,0.00,,,0.52,TxWx,2013-04-04 23:46:00,
2013-04-04 19:47:00,70.4,66.0,29.93,East,96,11.8,11.8,87,0.00,,,0.52,TxWx,2013-04-04 23:47:00,
2013-04-04 19:50:00,70.2,65.0,29.93,East,96,16.7,16.7,85,0.00,,,0.52,TxWx,2013-04-04 23:50:00,
2013-04-04 19:51:00,70.6,66.0,29.93,ESE,118,14.2,14.2,85,0.00,,,0.52,TxWx,2013-04-04 23:51:00,
2013-04-04 19:54:00,70.7,66.0,29.93,ESE,118,14.9,15.5,84,0.00,,,0.52,TxWx,2013-04-04 23:54:00,
2013-04-04 19:56:00,71.0,66.0,29.93,ENE,73,11.1,14.9,83,0.00,,,0.52,TxWx,2013-04-04 23:56:00,
2013-04-04 19:57:00,71.0,66.0,29.93,ENE,73,16.1,16.1,83,0.00,,,0.52,TxWx,2013-04-04 23:57:00,
2013-04-04 20:01:00,70.9,65.0,29.93,East,96,14.9,15.5,83,0.00,,,0.52,TxWx,2013-04-05 00:01:00,
2013-04-04 20:02:00,70.9,65.0,29.93,East,96,13.0,13.0,83,0.00,,,0.52,TxWx,2013-04-05 00:02:00,
2013-04-04 20:03:00,71.0,66.0,29.93,ESE,118,14.9,16.7,83,0.00,,,0.52,TxWx,2013-04-05 00:03:00,
2013-04-04 20:04:00,70.9,65.0,29.92,East,96,14.2,17.9,83,0.00,,,0.52,TxWx,2013-04-05 00:04:00,
2013-04-04 20:07:00,71.0,66.0,29.91,East,96,19.2,19.2,83,0.00,,,0.52,TxWx,2013-04-05 00:07:00,
2013-04-04 20:08:00,71.5,66.0,29.91,East,96,17.3,17.3,84,0.00,,,0.52,TxWx,2013-04-05 00:08:00,
2013-04-04 20:11:00,71.0,66.0,29.90,East,96,19.2,19.2,84,0.00,,,0.52,TxWx,2013-04-05 00:11:00,
2013-04-04 20:13:00,71.5,67.0,29.90,East,96,19.2,19.8,85,0.00,,,0.52,TxWx,2013-04-05 00:13:00,
2013-04-04 20:14:00,71.2,66.0,29.90,East,96,19.2,19.2,85,0.00,,,0.52,TxWx,2013-04-05 00:14:00,
2013-04-04 20:17:00,71.3,66.0,29.90,East,96,21.7,21.7,84,0.00,,,0.52,TxWx,2013-04-05 00:17:00,
2013-04-04 20:18:00,71.5,67.0,29.90,ESE,118,19.8,19.8,85,0.00,,,0.52,TxWx,2013-04-05 00:18:00,
2013-04-04 20:20:00,71.8,67.0,29.91,East,96,21.0,21.0,84,0.00,,,0.52,TxWx,2013-04-05 00:20:00,
2013-04-04 20:23:00,72.0,67.0,29.91,East,96,19.2,19.2,85,0.00,,,0.53,TxWx,2013-04-05 00:23:00,
2013-04-04 20:24:00,71.7,67.0,29.91,East,96,20.4,20.4,85,0.00,,,0.54,TxWx,2013-04-05 00:24:00,
2013-04-04 20:27:00,71.5,67.0,29.92,East,96,19.2,19.2,85,0.00,,,0.54,TxWx,2013-04-05 00:27:00,
2013-04-04 20:28:00,71.9,67.0,29.92,ESE,118,13.6,13.6,85,0.00,,,0.54,TxWx,2013-04-05 00:28:00,
2013-04-04 20:29:00,71.7,67.0,29.92,East,96,16.1,16.7,85,0.00,,,0.54,TxWx,2013-04-05 00:29:00,
2013-04-04 20:30:00,71.8,67.0,29.92,East,96,16.1,16.1,86,0.12,,,0.54,TxWx,2013-04-05 00:30:00,
2013-04-04 20:33:00,72.0,68.0,29.92,ENE,73,16.1,16.1,86,0.12,,,0.54,TxWx,2013-04-05 00:33:00,
2013-04-04 20:34:00,72.0,68.0,29.92,NE,51,13.0,14.9,86,0.12,,,0.54,TxWx,2013-04-05 00:34:00,
2013-04-04 20:36:00,71.9,68.0,29.93,East,96,15.5,15.5,86,0.12,,,0.54,TxWx,2013-04-05 00:36:00,
2013-04-04 20:39:00,71.7,68.0,29.92,East,96,17.3,17.3,86,0.12,,,0.54,TxWx,2013-04-05 00:39:00,
2013-04-04 20:40:00,71.7,68.0,29.92,ESE,118,18.6,18.6,86,0.00,,,0.54,TxWx,2013-04-05 00:40:00,
2013-04-04 20:42:00,72.1,68.0,29.92,ESE,118,16.1,16.1,87,0.00,,,0.54,TxWx,2013-04-05 00:42:00,
2013-04-04 20:43:00,72.1,68.0,29.93,East,96,12.4,14.9,87,0.00,,,0.54,TxWx,2013-04-05 00:43:00,
2013-04-04 20:44:00,72.2,68.0,29.92,East,96,13.0,14.9,87,0.00,,,0.54,TxWx,2013-04-05 00:44:00,
2013-04-04 20:47:00,71.9,68.0,29.92,ESE,118,16.1,17.9,86,0.00,,,0.54,TxWx,2013-04-05 00:47:00,
2013-04-04 20:48:00,72.3,68.0,29.92,ESE,118,14.9,15.5,87,0.00,,,0.54,TxWx,2013-04-05 00:48:00,
2013-04-04 20:49:00,72.1,68.0,29.92,ESE,118,16.1,18.6,87,0.00,,,0.54,TxWx,2013-04-05 00:49:00,
2013-04-04 20:50:00,72.5,68.0,29.92,ESE,118,15.5,16.1,87,0.00,,,0.54,TxWx,2013-04-05 00:50:00,
2013-04-04 20:52:00,72.5,68.0,29.92,ESE,118,18.6,18.6,87,0.00,,,0.54,TxWx,2013-04-05 00:52:00,
2013-04-04 20:54:00,72.4,68.0,29.92,East,96,16.1,17.9,86,0.00,,,0.54,TxWx,2013-04-05 00:54:00,
2013-04-04 20:56:00,72.3,68.0,29.91,ESE,118,16.1,17.9,86,0.00,,,0.54,TxWx,2013-04-05 00:56:00,
2013-04-04 20:57:00,72.5,69.0,29.91,East,96,13.6,14.9,86,0.00,,,0.54,TxWx,2013-04-05 00:57:00,
2013-04-04 21:01:00,72.5,68.0,29.92,ESE,118,13.6,16.1,86,0.00,,,0.54,TxWx,2013-04-05 01:01:00,
2013-04-04 21:02:00,72.4,68.0,29.92,ESE,118,16.1,16.1,86,0.00,,,0.54,TxWx,2013-04-05 01:02:00,
2013-04-04 21:04:00,72.5,69.0,29.93,East,96,14.2,18.6,86,0.00,,,0.54,TxWx,2013-04-05 01:04:00,
2013-04-04 21:07:00,72.5,68.0,29.93,East,96,11.1,13.0,86,0.00,,,0.54,TxWx,2013-04-05 01:07:00,
2013-04-04 21:08:00,72.5,68.0,29.93,East,96,11.8,13.0,86,0.00,,,0.54,TxWx,2013-04-05 01:08:00,
2013-04-04 21:09:00,72.6,69.0,29.93,ESE,118,13.6,13.6,87,0.00,,,0.54,TxWx,2013-04-05 01:09:00,
2013-04-04 21:12:00,72.8,69.0,29.93,ESE,118,9.9,9.9,86,0.00,,,0.54,TxWx,2013-04-05 01:12:00,
2013-04-04 21:13:00,72.7,69.0,29.93,SE,141,9.9,11.1,86,0.00,,,0.54,TxWx,2013-04-05 01:13:00,
2013-04-04 21:14:00,72.6,69.0,29.93,ESE,118,9.3,11.1,86,0.00,,,0.54,TxWx,2013-04-05 01:14:00,
2013-04-04 21:17:00,72.7,68.0,29.93,SE,141,9.3,11.8,86,0.00,,,0.54,TxWx,2013-04-05 01:17:00,
2013-04-04 21:18:00,72.8,69.0,29.93,ESE,118,9.3,9.9,86,0.00,,,0.54,TxWx,2013-04-05 01:18:00,
2013-04-04 21:19:00,72.8,68.0,29.93,East,96,7.4,9.3,86,0.00,,,0.54,TxWx,2013-04-05 01:19:00,
2013-04-04 21:22:00,73.0,68.0,29.93,ESE,118,8.0,8.0,86,0.00,,,0.54,TxWx,2013-04-05 01:22:00,
2013-04-04 21:23:00,73.1,68.0,29.93,ESE,118,8.7,8.7,86,0.00,,,0.54,TxWx,2013-04-05 01:23:00,
2013-04-04 21:24:00,73.0,68.0,29.93,East,96,8.0,9.3,86,0.00,,,0.54,TxWx,2013-04-05 01:24:00,
2013-04-04 21:25:00,72.8,68.0,29.93,ESE,118,9.9,9.9,85,0.00,,,0.54,TxWx,2013-04-05 01:25:00,
2013-04-04 21:29:00,73.3,68.0,29.93,East,96,8.7,10.5,85,0.00,,,0.54,TxWx,2013-04-05 01:29:00,
2013-04-04 21:30:00,73.4,68.0,29.93,ESE,118,9.3,9.3,85,0.00,,,0.54,TxWx,2013-04-05 01:30:00,
2013-04-04 21:35:00,73.5,68.0,29.93,ESE,118,8.7,8.7,84,0.00,,,0.54,TxWx,2013-04-05 01:35:00,
2013-04-04 21:38:00,73.7,68.0,29.93,East,96,6.8,7.4,83,0.00,,,0.54,TxWx,2013-04-05 01:38:00,
2013-04-04 21:40:00,73.8,68.0,29.93,ESE,118,9.9,11.1,83,0.00,,,0.54,TxWx,2013-04-05 01:40:00,
2013-04-04 21:41:00,73.8,68.0,29.93,SE,141,9.9,11.1,83,0.00,,,0.54,TxWx,2013-04-05 01:41:00,
2013-04-04 21:42:00,73.9,68.0,29.93,ESE,118,9.9,9.9,83,0.00,,,0.54,TxWx,2013-04-05 01:42:00,
2013-04-04 21:43:00,74.0,68.0,29.93,ESE,118,9.3,9.3,83,0.00,,,0.54,TxWx,2013-04-05 01:43:00,
2013-04-04 21:47:00,73.8,68.0,29.93,ESE,118,8.7,9.9,83,0.00,,,0.54,TxWx,2013-04-05 01:47:00,
2013-04-04 21:49:00,73.7,68.0,29.93,ESE,118,9.3,10.5,83,0.00,,,0.54,TxWx,2013-04-05 01:49:00,
2013-04-04 21:50:00,73.8,68.0,29.93,ESE,118,9.3,9.3,83,0.00,,,0.54,TxWx,2013-04-05 01:50:00,
2013-04-04 21:51:00,73.9,68.0,29.93,SE,141,9.3,9.3,83,0.00,,,0.54,TxWx,2013-04-05 01:51:00,
2013-04-04 21:54:00,73.8,68.0,29.93,ESE,118,9.9,11.1,83,0.00,,,0.54,TxWx,2013-04-05 01:54:00,
2013-04-04 21:59:00,73.8,68.0,29.93,ESE,118,9.3,10.5,83,0.00,,,0.54,TxWx,2013-04-05 01:59:00,
2013-04-04 22:00:00,73.8,68.0,29.93,SE,141,7.4,8.7,83,0.00,,,0.54,TxWx,2013-04-05 02:00:00,
2013-04-04 22:01:00,73.7,68.0,29.93,East,96,9.9,9.9,83,0.00,,,0.54,TxWx,2013-04-05 02:01:00,
2013-04-04 22:05:00,73.9,68.0,29.93,ESE,118,8.0,9.3,83,0.00,,,0.54,TxWx,2013-04-05 02:05:00,
2013-04-04 22:07:00,73.8,69.0,29.94,SE,141,8.0,8.0,84,0.00,,,0.54,TxWx,2013-04-05 02:07:00,
2013-04-04 22:08:00,73.7,68.0,29.94,ESE,118,10.5,10.5,83,0.00,,,0.54,TxWx,2013-04-05 02:08:00,
2013-04-04 22:10:00,73.8,68.0,29.94,SE,141,8.0,8.0,83,0.00,,,0.54,TxWx,2013-04-05 02:10:00,
2013-04-04 22:11:00,73.8,68.0,29.94,SE,141,8.7,9.9,83,0.00,,,0.54,TxWx,2013-04-05 02:11:00,
2013-04-04 22:14:00,74.0,68.0,29.94,ESE,118,8.7,9.9,83,0.00,,,0.54,TxWx,2013-04-05 02:14:00,
2013-04-04 22:15:00,74.0,68.0,29.94,SE,141,8.7,8.7,83,0.00,,,0.54,TxWx,2013-04-05 02:15:00,
2013-04-04 22:16:00,74.0,68.0,29.94,ESE,118,9.3,9.3,83,0.00,,,0.54,TxWx,2013-04-05 02:16:00,
2013-04-04 22:17:00,73.9,68.0,29.94,ESE,118,9.9,9.9,83,0.00,,,0.54,TxWx,2013-04-05 02:17:00,
2013-04-04 22:19:00,74.0,68.0,29.94,SE,141,8.0,8.7,83,0.00,,,0.54,TxWx,2013-04-05 02:19:00,
2013-04-04 22:21:00,74.1,68.0,29.95,SE,141,6.2,7.4,83,0.00,,,0.54,TxWx,2013-04-05 02:21:00,
2013-04-04 22:22:00,74.1,68.0,29.95,SE,141,6.2,7.4,83,0.00,,,0.54,TxWx,2013-04-05 02:22:00,
2013-04-04 22:26:00,74.1,68.0,29.95,SE,141,7.4,8.7,82,0.00,,,0.54,TxWx,2013-04-05 02:26:00,
2013-04-04 22:28:00,74.3,68.0,29.95,SE,141,6.8,6.8,82,0.00,,,0.54,TxWx,2013-04-05 02:28:00,
2013-04-04 22:29:00,74.2,68.0,29.95,SE,141,8.0,8.7,82,0.00,,,0.54,TxWx,2013-04-05 02:29:00,
2013-04-04 22:33:00,74.1,68.0,29.95,SE,141,6.8,8.7,82,0.00,,,0.54,TxWx,2013-04-05 02:33:00,
2013-04-04 22:34:00,74.4,68.0,29.96,SE,141,6.2,6.2,82,0.00,,,0.54,TxWx,2013-04-05 02:34:00,
2013-04-04 22:35:00,74.3,68.0,29.96,ESE,118,7.4,8.0,81,0.00,,,0.54,TxWx,2013-04-05 02:35:00,
2013-04-04 22:39:00,74.5,69.0,29.96,SE,141,8.7,8.7,81,0.00,,,0.54,TxWx,2013-04-05 02:39:00,
2013-04-04 22:40:00,74.8,69.0,29.96,ESE,118,6.2,6.2,81,0.00,,,0.54,TxWx,2013-04-05 02:40:00,
2013-04-04 22:41:00,74.5,68.0,29.96,ESE,118,6.2,6.8,80,0.00,,,0.54,TxWx,2013-04-05 02:41:00,
2013-04-04 22:44:00,74.8,69.0,29.96,SE,141,5.6,6.2,81,0.00,,,0.54,TxWx,2013-04-05 02:44:00,
2013-04-04 22:45:00,74.7,69.0,29.96,SE,141,7.4,7.4,81,0.00,,,0.54,TxWx,2013-04-05 02:45:00,
2013-04-04 22:47:00,74.4,67.0,29.96,SE,141,8.0,8.0,80,0.00,,,0.54,TxWx,2013-04-05 02:47:00,
2013-04-04 22:49:00,74.6,68.0,29.95,SE,141,8.0,8.0,80,0.00,,,0.54,TxWx,2013-04-05 02:49:00,
2013-04-04 22:52:00,74.9,69.0,29.95,SE,141,8.0,8.0,81,0.00,,,0.54,TxWx,2013-04-05 02:52:00,
2013-04-04 22:54:00,74.5,68.0,29.95,SE,141,8.0,8.7,81,0.00,,,0.54,TxWx,2013-04-05 02:54:00,
2013-04-04 22:57:00,74.5,69.0,29.96,SE,141,8.7,8.7,81,0.00,,,0.54,TxWx,2013-04-05 02:57:00,
2013-04-04 22:59:00,74.4,68.0,29.96,SE,141,8.0,8.7,82,0.00,,,0.54,TxWx,2013-04-05 02:59:00,
2013-04-04 23:02:00,74.3,68.0,29.96,ESE,118,6.2,6.2,82,0.00,,,0.54,TxWx,2013-04-05 03:02:00,
2013-04-04 23:03:00,74.4,68.0,29.96,SSE,163,7.4,8.0,82,0.00,,,0.54,TxWx,2013-04-05 03:03:00,
2013-04-04 23:05:00,74.4,68.0,29.96,SE,141,9.9,10.5,82,0.00,,,0.54,TxWx,2013-04-05 03:05:00,
2013-04-04 23:08:00,74.3,68.0,29.96,SE,141,7.4,8.7,82,0.00,,,0.54,TxWx,2013-04-05 03:08:00,
2013-04-04 23:09:00,74.4,68.0,29.96,SE,141,8.0,8.0,82,0.00,,,0.54,TxWx,2013-04-05 03:09:00,
2013-04-04 23:10:00,74.5,69.0,29.96,SE,141,9.9,9.9,82,0.00,,,0.54,TxWx,2013-04-05 03:10:00,
2013-04-04 23:14:00,74.5,68.0,29.96,SE,141,7.4,9.3,83,0.00,,,0.54,TxWx,2013-04-05 03:14:00,
2013-04-04 23:15:00,74.3,68.0,29.96,SE,141,8.0,8.0,83,0.00,,,0.54,TxWx,2013-04-05 03:15:00,
2013-04-04 23:19:00,74.3,68.0,29.96,SE,141,5.6,8.0,83,0.00,,,0.54,TxWx,2013-04-05 03:19:00,
2013-04-04 23:20:00,74.3,68.0,29.96,SE,141,6.8,8.0,83,0.00,,,0.54,TxWx,2013-04-05 03:20:00,
2013-04-04 23:21:00,74.3,69.0,29.96,SSE,163,9.9,9.9,84,0.00,,,0.54,TxWx,2013-04-05 03:21:00,
2013-04-04 23:25:00,74.2,69.0,29.96,SE,141,9.9,9.9,84,0.00,,,0.54,TxWx,2013-04-05 03:25:00,
2013-04-04 23:27:00,74.3,69.0,29.96,SE,141,9.3,11.1,84,0.00,,,0.54,TxWx,2013-04-05 03:27:00,
2013-04-04 23:28:00,74.3,69.0,29.96,SE,141,6.2,6.2,84,0.00,,,0.54,TxWx,2013-04-05 03:28:00,
2013-04-04 23:31:00,74.2,69.0,29.96,SE,141,7.4,7.4,84,0.00,,,0.54,TxWx,2013-04-05 03:31:00,
2013-04-04 23:32:00,74.3,69.0,29.97,SE,141,8.0,8.0,84,0.00,,,0.54,TxWx,2013-04-05 03:32:00,
2013-04-04 23:34:00,74.5,69.0,29.96,SE,141,8.7,9.9,84,0.00,,,0.54,TxWx,2013-04-05 03:34:00,
2013-04-04 23:36:00,74.5,69.0,29.97,SE,141,6.8,8.7,84,0.00,,,0.54,TxWx,2013-04-05 03:36:00,
2013-04-04 23:39:00,74.6,70.0,29.97,SSE,163,9.3,9.3,85,0.00,,,0.54,TxWx,2013-04-05 03:39:00,
2013-04-04 23:41:00,74.7,70.0,29.97,SSW,208,3.7,5.6,85,0.00,,,0.54,TxWx,2013-04-05 03:41:00,
2013-04-04 23:42:00,74.5,70.0,29.97,SE,141,5.0,5.0,85,0.00,,,0.54,TxWx,2013-04-05 03:42:00,
2013-04-04 23:44:00,74.6,70.0,29.97,SE,141,4.3,4.3,85,0.00,,,0.54,TxWx,2013-04-05 03:44:00,
2013-04-04 23:47:00,74.5,70.0,29.98,South,186,6.2,6.2,85,0.00,,,0.54,TxWx,2013-04-05 03:47:00,
2013-04-04 23:48:00,74.5,70.0,29.98,SE,141,4.3,4.3,85,0.00,,,0.54,TxWx,2013-04-05 03:48:00,
2013-04-04 23:50:00,74.6,70.0,29.97,SSE,163,6.8,6.8,85,0.00,,,0.54,TxWx,2013-04-05 03:50:00,
2013-04-04 23:53:00,74.6,70.0,29.97,ESE,118,6.2,6.2,85,0.00,,,0.54,TxWx,2013-04-05 03:53:00,
2013-04-04 23:55:00,74.7,70.0,29.98,SSE,163,3.1,3.1,85,0.00,,,0.54,TxWx,2013-04-05 03:55:00,
2013-04-04 23:59:00,74.6,70.0,29.98,SE,141,5.0,5.0,85,0.00,,,0.54,TxWx,2013-04-05 03:59:00,